Date StartTime U_cm/s V_cm/s W_cm/s Ustd_cm/s Vstd_cm/s Wstd_cm/s Uvar_(cm/s)^2 Vvar_(cm/s)^2 Wvar_(cm/s)^2 KE_(m/s)^2 TurbulentKE_(m/s)^2 HorizWindSpeed_cm/s FrictionSpeec_cm/s DragCoef SpeedOfSound_m/s SonicTemperature_C Pressure_mb 
08/09/2013  14:34:00       49.502       30.172       26.236       27.278       32.968       22.081      744.073     1086.876      487.558        0.318        0.116       57.973       19.988        0.119      348.080       27.517      858.156
08/09/2013  14:35:00      -37.962      -98.064        3.594       49.194       71.134       42.363     2420.072     5059.983     1794.631        1.017        0.464      105.156       44.873        0.182      347.581       26.655      858.152
08/09/2013  14:36:00      -14.783      -51.588        7.963       37.854       50.201       40.047     1432.910     2520.133     1603.749        0.425        0.278       53.664       34.340        0.409      347.681       26.827      858.128
08/09/2013  14:37:00      -32.651      -41.834       15.368       71.361       70.988       44.249     5092.455     5039.339     1958.011        0.757        0.604       53.067       41.557        0.613      347.792       27.018      858.114
08/09/2013  14:38:00      -32.046     -103.550        3.197       49.882       61.375       35.939     2488.240     3766.870     1291.620        0.965        0.377      108.396       35.761        0.109      347.453       26.432      858.115
08/09/2013  14:39:00      -92.072      -31.676       11.424       40.279       63.013       35.113     1622.367     3970.674     1232.909        0.822        0.341       97.369       32.059        0.108      347.555       26.611      858.098
08/09/2013  14:40:00        6.219      -38.632       35.175       53.142       80.410       69.829     2824.090     6465.809     4876.115        0.846        0.708       39.129       26.083        0.444      347.858       27.130      858.088
08/09/2013  14:41:00       43.263      -22.898       25.857       48.664       51.208       56.283     2368.158     2622.240     3167.803        0.561        0.408       48.949       45.977        0.882      347.544       26.590      858.088
08/09/2013  14:42:00      -34.088       -5.116       27.741       71.125       55.808       33.157     5058.797     3114.510     1099.364        0.561        0.464       34.469       36.067        1.095      347.649       26.771      858.086
08/09/2013  14:43:00      -73.514     -100.600        4.662       82.339       65.401       44.808     6779.737     4277.258     2007.773        1.430        0.653      124.598       33.699        0.073      347.650       26.774      858.086
08/09/2013  14:44:00     -155.030      -41.867        9.819      112.924       82.524       46.344    12751.832     6810.163     2147.745        2.379        1.085      160.584       56.761        0.125      347.783       27.000      858.088
08/09/2013  14:45:00     -208.891      -97.082       -3.518      100.973       97.083       53.836    10195.634     9425.193     2898.283        3.779        1.126      230.348       55.188        0.057      347.726       26.900      858.070
08/09/2013  14:46:00     -162.774       18.220        2.924      140.075      116.347       53.389    19621.050    13536.557     2850.414        3.142        1.800      163.790       61.498        0.141      348.025       27.419      858.052
08/09/2013  14:47:00     -381.370     -101.015      -15.999      147.874      114.690       65.736    21866.599    13153.682     4321.167        9.762        1.967      394.522       81.513        0.043      347.724       26.897      858.033
08/09/2013  14:48:00     -254.800     -121.419       -9.958      128.670      111.086       50.632    16555.844    12340.070     2563.585        5.561        1.573      282.251       51.925        0.034      347.802       27.032      858.041
08/09/2013  14:49:00     -385.792       31.991      -17.996      100.132      107.901       59.376    10026.510    11642.618     3525.486        8.768        1.260      387.116       46.213        0.014      347.578       26.644      858.041
08/09/2013  14:50:00     -351.859      -30.058      -15.362      118.318       75.914       49.497    13999.204     5762.940     2449.928        7.357        1.111      353.141       53.429        0.023      347.447       26.417      858.036
08/09/2013  14:51:00     -262.772       18.383      -28.229       98.934       46.289       25.586     9787.936     2142.686      654.623        4.138        0.629      263.415       22.244        0.007      346.991       25.633      858.042
08/09/2013  14:52:00      -10.796       25.047      -22.502       52.833       53.172       24.533     2791.331     2827.219      601.854        0.373        0.311       27.275       18.628        0.466      347.234       26.056      858.016
08/09/2013  14:53:00      -55.076      -27.613        2.299       95.606       66.503       34.584     9140.520     4422.712     1196.056        0.928        0.738       61.611       35.069        0.324      347.802       27.035      858.002
08/09/2013  14:54:00     -294.501       -2.730      -29.026      129.411       75.632       42.799    16747.160     5720.168     1831.788        5.594        1.215      294.514       56.280        0.037      347.361       26.273      858.025
08/09/2013  14:55:00       24.108        4.208       19.422       60.627       51.640       35.812     3675.587     2666.638     1282.504        0.430        0.381       24.472       25.646        1.098      347.603       26.693      858.004
08/09/2013  14:56:00      -33.262       48.163       -4.148       79.795       63.284       37.312     6367.203     4004.852     1392.183        0.760        0.588       58.532       48.146        0.677      347.327       26.215      857.981
08/09/2013  14:57:00      -67.873      127.752      -27.482       42.327       28.045       27.294     1791.542      786.532      744.936        1.250        0.166      144.663       17.779        0.015      347.398       26.340      857.968
08/09/2013  14:58:00      -97.045       17.056      -17.747       68.340       62.257       34.014     4670.299     3875.895     1156.958        0.986        0.485       98.532       31.456        0.102      347.585       26.662      857.965
08/09/2013  14:59:00     -425.994     -153.459      -27.755      128.029       90.870       61.652    16391.353     8257.327     3800.973       11.712        1.422      452.792       64.396        0.020      347.292       26.152      857.939
08/09/2013  15:00:00     -258.963      -83.482      -11.388      116.333      109.774       48.499    13533.468    12050.402     2352.133        5.104        1.397      272.086       46.129        0.029      347.380       26.304      857.953
08/09/2013  15:01:00     -140.745       26.803       -4.289      101.117       79.288       34.153    10224.564     6286.650     1166.401        1.911        0.884      143.274       43.639        0.093      347.457       26.438      857.936
08/09/2013  15:02:00     -119.414       -6.161       -1.743       91.320       73.737       28.462     8339.388     5437.147      810.084        1.444        0.729      119.573       33.780        0.080      347.397       26.336      857.936
08/09/2013  15:03:00      -16.374      -52.364        1.077       39.542       76.419       22.894     1563.546     5839.876      524.124        0.547        0.396       54.864       13.710        0.062      347.380       26.306      857.913
08/09/2013  15:04:00     -265.664      -70.648      -20.875       88.425      113.483       50.430     7818.973    12878.286     2543.222        4.962        1.162      274.897       45.816        0.028      347.454       26.429      857.906
08/09/2013  15:05:00     -180.637      -61.226        2.854      132.536       75.174       42.151    17565.880     5651.186     1776.749        3.069        1.250      190.731       36.875        0.037      347.535       26.573      857.908
08/09/2013  15:06:00     -403.093      -59.733      -18.966      121.243       86.979       57.904    14699.851     7565.408     3352.848        9.601        1.281      407.495       55.616        0.019      347.443       26.413      857.895
08/09/2013  15:07:00     -291.886      -78.077      -17.065      132.794      114.904       58.220    17634.332    13202.852     3389.570        6.290        1.711      302.148       67.286        0.050      347.481       26.480      857.881
08/09/2013  15:08:00     -162.500      -96.278       -9.864       58.862       68.041       34.318     3464.689     4629.610     1177.695        2.252        0.464      188.880       20.798        0.012      347.469       26.459      857.901
08/09/2013  15:09:00     -222.021     -140.075       -4.681      110.398       94.637       56.668    12187.809     8956.243     3211.302        4.664        1.218      262.515       60.544        0.053      347.439       26.406      857.901
08/09/2013  15:10:00     -162.743     -147.862        1.512       97.570       80.424       54.410     9519.891     6468.084     2960.436        3.365        0.947      219.882       51.479        0.055      347.364       26.275      857.886
08/09/2013  15:11:00     -168.377     -151.111       -0.347      134.435       82.258       54.883    18072.663     6766.445     3012.175        3.951        1.393      226.242       56.057        0.061      347.401       26.342      857.890
08/09/2013  15:12:00     -151.308      -68.433        2.583       88.715       85.158       45.421     7870.287     7251.965     2063.033        2.238        0.859      166.064       52.878        0.101      347.431       26.393      857.872
08/09/2013  15:13:00     -196.248      -85.651       -0.898      136.944       76.103       46.931    18753.734     5791.688     2202.506        3.629        1.337      214.124       57.090        0.071      347.408       26.352      857.869
08/09/2013  15:14:00     -226.422      -85.210        3.202      150.399       81.215       55.966    22620.005     6595.843     3132.243        4.544        1.617      241.925       70.171        0.084      347.355       26.260      857.877
08/09/2013  15:15:00     -173.976     -134.217       -4.780      101.534       78.304       51.195    10309.247     6131.582     2620.967        3.368        0.953      219.731       51.140        0.054      347.350       26.252      857.870
08/09/2013  15:16:00     -127.924      -52.069       11.171      126.381       86.989       50.017    15972.075     7567.027     2501.694        2.262        1.302      138.115       47.367        0.118      347.425       26.385      857.859
08/09/2013  15:17:00     -163.946      117.593      -18.959      105.981       55.130       45.049    11231.961     3039.271     2029.435        2.868        0.815      201.758       49.403        0.060      347.407       26.353      857.860
08/09/2013  15:18:00     -188.811        3.442       -2.205       85.159       82.098       46.020     7252.077     6740.034     2117.812        2.589        0.805      188.843       45.075        0.057      347.489       26.492      857.847
08/09/2013  15:19:00     -311.953      -91.340      -20.854      121.626      168.172       61.019    14792.925    28281.903     3723.319        7.644        2.340      325.050       53.105        0.027      347.581       26.650      857.809
08/09/2013  15:20:00     -311.305      -96.631      -31.806      120.084       85.868       48.448    14420.207     7373.246     2347.239        6.570        1.207      325.957       47.380        0.021      347.296       26.159      857.811
08/09/2013  15:21:00     -114.443      -43.620        3.708       91.746       56.658       39.437     8417.367     3210.126     1555.296        1.410        0.659      122.474       33.655        0.076      347.579       26.648      857.794
08/09/2013  15:22:00      -89.116      -51.633        7.681      143.215      109.793       58.670    20510.395    12054.612     3442.112        2.333        1.800      102.993       71.847        0.487      347.666       26.799      857.772
08/09/2013  15:23:00      -19.766       29.760       27.576       60.363       41.566       44.004     3643.724     1727.772     1936.395        0.467        0.365       35.726       26.453        0.548      347.969       27.325      857.782
08/09/2013  15:24:00     -122.651       -3.175       -8.105       73.510       51.713       37.345     5403.691     2674.205     1394.644        1.229        0.474      122.692       31.448        0.066      347.867       27.148      857.781
08/09/2013  15:25:00     -265.935     -151.835       -7.506      137.930       98.651       51.929    19024.770     9731.997     2696.631        6.264        1.573      306.228       60.153        0.039      347.679       26.820      857.746
08/09/2013  15:26:00      -72.131      -68.484       30.225       99.766       80.394       52.852     9953.325     6463.267     2793.343        1.501        0.960       99.464       48.069        0.234      347.856       27.129      857.736
08/09/2013  15:27:00       17.000     -117.306       -2.297       45.606       58.863       40.064     2079.875     3464.845     1605.104        1.060        0.357      118.531       34.282        0.084      347.885       27.178      857.730
08/09/2013  15:28:00       24.637     -115.311      -16.624       52.179       64.403       30.193     2722.609     4147.694      911.642        1.098        0.389      117.914       28.691        0.059      347.610       26.704      857.740
08/09/2013  15:29:00       12.182     -147.814      -14.261       82.978       66.201       48.046     6885.395     4382.527     2308.415        1.789        0.679      148.315       28.142        0.036      347.667       26.802      857.745
08/09/2013  15:30:00     -138.524     -219.363       -7.767      123.279      116.168       62.415    15197.643    13495.113     3895.643        4.997        1.629      259.440       71.164        0.075      347.886       27.178      857.718
08/09/2013  15:31:00     -203.569     -200.345        0.903      109.369      119.864       59.396    11961.615    14367.455     3527.929        5.571        1.493      285.619       48.307        0.029      347.624       26.724      857.734
08/09/2013  15:32:00      -81.558     -142.452        3.850      101.450       63.401       31.431    10292.064     4019.727      987.885        2.113        0.765      164.147       26.924        0.027      347.534       26.571      857.736
08/09/2013  15:33:00      -63.899      -19.487        3.582       52.251       58.540       36.766     2730.202     3426.878     1351.748        0.599        0.375       66.804       34.175        0.262      347.558       26.614      857.700
08/09/2013  15:34:00      -68.759     -147.061        5.984       85.287       66.642       37.824     7273.819     4441.149     1430.672        1.977        0.657      162.341       38.561        0.056      347.586       26.661      857.692
08/09/2013  15:35:00     -112.871      -90.110      -13.665       77.116       49.870       33.684     5946.860     2487.007     1134.605        1.531        0.478      144.429       31.384        0.047      347.644       26.762      857.684
08/09/2013  15:36:00      -63.552      -72.537       -4.766       81.162       53.494       34.593     6587.292     2861.631     1196.660        0.998        0.532       96.439       35.909        0.139      347.648       26.769      857.673
08/09/2013  15:37:00        5.293      -63.351        0.347       55.958       49.851       38.325     3131.274     2485.079     1468.794        0.556        0.354       63.571       35.113        0.305      347.365       26.282      857.659
08/09/2013  15:38:00      -31.923        7.842        0.591       17.372       21.220       18.214      301.781      450.284      331.766        0.108        0.054       32.872       16.481        0.251      347.716       26.886      857.659
08/09/2013  15:39:00      -27.685      -46.492        6.793       50.219       44.038       28.413     2521.905     1939.310      807.307        0.412        0.263       54.111       29.387        0.295      348.091       27.535      857.658
08/09/2013  15:40:00       35.747      -18.577       24.132       59.812       47.367       37.896     3577.518     2243.626     1436.121        0.473        0.363       40.286       36.776        0.833      347.749       26.945      857.657
08/09/2013  15:41:00       53.710       57.785       25.796       27.391       37.496       32.706      750.288     1405.967     1069.654        0.506        0.161       78.892       22.123        0.079      347.581       26.654      857.657
08/09/2013  15:42:00       -3.708        6.686      -14.660       15.168       14.170       10.380      230.064      200.793      107.739        0.041        0.027        7.645        6.349        0.690      347.709       26.875      857.666
08/09/2013  15:43:00       20.002        8.412       11.414       28.373       12.209       13.347      805.010      149.055      178.154        0.087        0.057       21.699       11.187        0.266      347.373       26.296      857.667
08/09/2013  15:44:00       24.136       31.377       37.124       32.116       31.647       19.912     1031.445     1001.526      396.503        0.269        0.121       39.586       13.540        0.117      347.493       26.503      857.663
08/09/2013  15:45:00        2.980       29.568       23.600       35.778       30.857       35.220     1280.038      952.174     1240.425        0.246        0.174       29.718       14.708        0.245      347.460       26.446      857.653
08/09/2013  15:46:00     -204.009      -22.865      -23.801       71.282       55.082       29.301     5081.169     3034.073      858.561        2.584        0.449      205.286       35.758        0.030      347.605       26.693      857.650
08/09/2013  15:47:00     -177.448      -28.901       -5.075      102.757       72.592       42.127    10559.086     5269.598     1774.718        2.497        0.880      179.786       55.075        0.094      347.856       27.124      857.639
08/09/2013  15:48:00     -161.850      -59.091       -8.141       48.227       45.828       26.204     2325.823     2100.172      686.634        1.743        0.256      172.300       21.264        0.015      347.635       26.746      857.640
08/09/2013  15:49:00      -96.885      -32.078       -7.519       55.359       34.332       35.492     3064.596     1178.675     1259.709        0.799        0.275      102.058       32.261        0.100      347.799       27.029      857.633
08/09/2013  15:50:00     -179.881      -83.388       -8.694      111.184       65.165       40.053    12361.947     4246.414     1604.216        2.880        0.911      198.270       49.726        0.063      347.880       27.165      857.619
08/09/2013  15:51:00     -182.459      -60.117      -12.731       57.415       78.671       41.222     3296.433     6189.107     1699.244        2.412        0.559      192.107       31.199        0.026      348.060       27.478      857.617
08/09/2013  15:52:00      -42.536      -11.097       31.792       55.561       74.402       35.341     3087.001     5535.675     1248.980        0.641        0.494       43.960       37.686        0.735      348.453       28.159      857.618
08/09/2013  15:53:00     -212.444      -52.639       -7.361      161.992       70.736       41.522    26241.490     5003.578     1724.068        4.046        1.648      218.868       50.506        0.053      348.307       27.905      857.635
08/09/2013  15:54:00     -236.517      -30.324        9.641      145.242      100.338       63.790    21095.374    10067.805     4069.209        4.609        1.762      238.453       74.201        0.097      348.267       27.836      857.653
08/09/2013  15:55:00     -133.445      -74.573        8.190      119.127       62.653       48.987    14191.166     3925.365     2399.744        2.197        1.026      152.869       55.149        0.130      348.054       27.469      857.664
08/09/2013  15:56:00     -154.941     -138.143       -2.329      121.713       80.045       51.813    14813.956     6407.212     2684.615        3.350        1.195      207.582       53.573        0.067      347.969       27.322      857.654
08/09/2013  15:57:00     -184.810     -125.230       11.040      156.970      113.929       68.526    24639.715    12979.792     4695.849        4.613        2.116      223.242       82.090        0.135      348.098       27.544      857.649
08/09/2013  15:58:00     -244.937     -179.654       -1.724      148.417      107.026       68.639    22027.682    11454.462     4711.374        6.523        1.910      303.760       74.814        0.061      347.761       26.960      857.646
08/09/2013  15:59:00     -207.999     -138.204       -0.963      122.254      105.203       58.739    14946.016    11067.667     3450.307        4.591        1.473      249.727       47.927        0.037      347.779       26.994      857.633
08/09/2013  16:00:00     -209.421     -192.214        8.737      150.764      111.553       67.856    22729.671    12444.019     4604.473        6.032        1.989      284.260       78.963        0.077      347.778       26.990      857.629
08/09/2013  16:01:00     -204.615      -23.933      -11.265      121.456       79.960       50.514    14751.621     6393.667     2551.679        3.313        1.185      206.009       57.584        0.078      347.955       27.294      857.643
08/09/2013  16:02:00      -73.053       -1.877        3.391       83.986       54.174       41.602     7053.580     2934.862     1730.750        0.853        0.586       73.077       32.272        0.195      348.056       27.473      857.637
08/09/2013  16:03:00      -88.628      -74.828       -8.130      105.221       54.617       35.167    11071.539     2983.026     1236.700        1.440        0.765      115.992       40.497        0.122      347.696       26.852      857.610
08/09/2013  16:04:00     -100.471      -77.739       16.842      120.156       76.018       48.970    14437.483     5778.702     2398.092        1.951        1.131      127.035       63.879        0.253      347.923       27.243      857.605
08/09/2013  16:05:00     -221.499      -91.402       -4.476      133.551      121.417       52.529    17835.816    14742.169     2759.294        4.638        1.767      239.617       58.337        0.059      347.881       27.167      857.603
08/09/2013  16:06:00     -329.388     -245.288      -14.387      118.483      118.789       63.613    14038.151    14110.848     4046.569       10.053        1.610      410.685       61.519        0.022      347.686       26.831      857.597
08/09/2013  16:07:00     -272.617     -106.581        8.795      115.454       70.254       42.527    13329.711     4935.555     1808.555        5.291        1.004      292.711       48.391        0.027      347.665       26.795      857.599
08/09/2013  16:08:00     -217.458     -145.858        6.438      144.274       92.861       67.848    20815.028     8623.208     4603.320        5.132        1.702      261.844       76.184        0.085      347.855       27.123      857.598
08/09/2013  16:09:00     -263.609     -241.370      -10.525      129.648      137.322       75.061    16808.537    18857.375     5634.094        8.457        2.065      357.420       77.286        0.047      347.627       26.730      857.597
08/09/2013  16:10:00     -244.279     -147.731      -11.525      122.276      109.556       49.279    14951.505    12002.613     2428.388        5.550        1.469      285.476       58.126        0.041      347.637       26.748      857.591
08/09/2013  16:11:00     -191.680     -147.017        1.471      140.837      107.874       59.856    19835.190    11636.748     3582.758        4.670        1.753      241.568       60.951        0.064      347.674       26.813      857.586
08/09/2013  16:12:00     -293.668     -210.521       -8.373      151.764      111.620       70.890    23032.325    12459.078     5025.324        8.557        2.026      361.331       77.392        0.046      347.619       26.717      857.587
08/09/2013  16:13:00     -289.989     -167.925      -18.843      139.847      112.694       56.024    19557.144    12699.989     3138.694        7.402        1.770      335.101       61.282        0.033      347.496       26.503      857.600
08/09/2013  16:14:00     -219.734     -175.425        9.506      132.779       84.527       65.316    17630.215     7144.851     4266.189        5.409        1.452      281.171       79.214        0.079      347.512       26.532      857.609
08/09/2013  16:15:00     -150.084     -166.733        5.745      116.388      105.959       62.845    13546.133    11227.372     3949.513        3.954        1.436      224.333       65.313        0.085      347.592       26.669      857.605
08/09/2013  16:16:00     -247.132     -127.978        0.757      138.221       82.839       52.016    19104.949     6862.242     2705.632        5.306        1.434      278.303       57.562        0.043      347.573       26.638      857.593
08/09/2013  16:17:00     -106.146     -170.085       -3.283      114.266      104.179       44.283    13056.688    10853.199     1960.963        3.303        1.294      200.489       36.585        0.033      347.573       26.637      857.584
08/09/2013  16:18:00     -100.191      -64.143       14.284       86.851       90.463       44.872     7543.095     8183.530     2013.511        1.605        0.887      118.964       44.804        0.142      347.769       26.977      857.577
08/09/2013  16:19:00     -102.856     -127.941        9.011       87.036       71.518       63.448     7575.341     5114.876     4025.677        2.187        0.836      164.159       61.349        0.140      347.795       27.021      857.575
08/09/2013  16:20:00       25.247      -73.791       23.560       76.239       63.737       46.798     5812.440     4062.424     2190.083        0.935        0.603       77.990       30.088        0.149      347.952       27.294      857.566
08/09/2013  16:21:00     -115.234      -80.235        0.821       70.727       55.173       35.800     5002.323     3044.106     1281.674        1.452        0.466      140.416       39.376        0.079      347.918       27.235      857.565
08/09/2013  16:22:00      -44.636        4.217       34.105       58.798       67.997       38.088     3457.147     4623.609     1450.674        0.635        0.477       44.835       35.465        0.626      348.234       27.781      857.556
08/09/2013  16:23:00     -160.127      -10.969       11.058       97.306       84.628       50.290     9468.415     7161.893     2529.113        2.252        0.958      160.503       49.109        0.094      348.156       27.644      857.563
08/09/2013  16:24:00     -175.854       28.898       -5.238      102.772      112.721       48.396    10562.122    12705.979     2342.171        2.869        1.281      178.212       50.021        0.079      348.106       27.558      857.578
08/09/2013  16:25:00     -190.098      137.747      -20.538       99.604       97.780       43.201     9920.929     9560.889     1866.354        3.844        1.067      234.758       39.640        0.029      347.628       26.733      857.545
08/09/2013  16:26:00     -145.370      106.466      -16.494       70.729       93.521       40.966     5002.584     8746.085     1678.248        2.408        0.771      180.187       29.154        0.026      347.755       26.950      857.520
08/09/2013  16:27:00     -109.002       72.712      -20.894       66.945       48.569       35.909     4481.684     2358.901     1289.488        1.287        0.407      131.028       39.451        0.091      347.760       26.961      857.507
08/09/2013  16:28:00      -98.022       76.008      -16.244       86.948       44.434       44.364     7559.905     1974.380     1968.185        1.357        0.575      124.039       38.966        0.099      347.898       27.200      857.531
08/09/2013  16:29:00     -117.110      -46.364        8.870      155.041       79.846       31.848    24037.653     6375.308     1014.311        2.368        1.571      125.954       47.103        0.140      348.061       27.480      857.507
08/09/2013  16:30:00     -310.821      -55.207       -7.273      139.832      114.700       62.226    19552.956    13156.054     3872.026        6.814        1.829      315.686       71.529        0.051      347.959       27.302      857.523
08/09/2013  16:31:00     -205.231      -28.320       -9.181       68.591       84.447       44.506     4704.735     7131.326     1980.817        2.841        0.691      207.175       29.765        0.021      348.052       27.463      857.507
08/09/2013  16:32:00     -121.525     -163.980       23.053      211.334      129.826       87.571    44662.253    16854.800     7668.737        5.568        3.459      204.103      106.206        0.271      348.096       27.540      857.499
08/09/2013  16:33:00     -411.163      -40.689      -23.296      168.941      113.214       69.656    28541.159    12817.345     4851.911       10.872        2.311      413.171       88.158        0.046      347.943       27.275      857.516
08/09/2013  16:34:00     -314.713       -3.493      -13.588      131.715      115.472       59.638    17348.737    13333.697     3556.726        6.673        1.712      314.732       67.340        0.046      348.039       27.441      857.535
08/09/2013  16:35:00      -97.941      -71.959       14.188      160.064       86.326       61.018    25620.594     7452.226     3723.209        2.588        1.840      121.534       78.594        0.418      348.154       27.641      857.534
08/09/2013  16:36:00     -327.612     -127.549       -7.744      177.822      144.635       73.406    31620.548    20919.389     5388.398        9.078        2.896      351.566       81.886        0.054      347.916       27.229      857.524
08/09/2013  16:37:00     -283.986     -100.971        0.838      121.109      160.530       65.216    14667.377    25769.877     4253.088        6.776        2.235      301.402       67.154        0.050      347.940       27.269      857.552
08/09/2013  16:38:00     -332.150      -75.649      -14.230      140.270      112.963       62.473    19675.687    12760.721     3902.858        7.629        1.817      340.656       72.297        0.045      347.721       26.891      857.526
08/09/2013  16:39:00     -407.247      -95.552      -17.276      173.599      168.132       85.393    30136.464    28268.277     7292.043       12.048        3.285      418.306       83.771        0.040      347.758       26.956      857.513
08/09/2013  16:40:00     -291.046     -203.673      -13.267      175.464      119.031       85.350    30787.645    14168.293     7284.669        8.929        2.612      355.233       92.992        0.069      347.768       26.972      857.549
08/09/2013  16:41:00     -301.372     -255.238       -8.793      205.935      155.940       89.876    42409.188    24317.386     8077.631       11.541        3.740      394.932      111.689        0.080      347.563       26.618      857.548
08/09/2013  16:42:00     -332.825     -276.171       -0.337      196.376      139.568       89.069    38563.493    19479.099     7933.307       12.650        3.299      432.485       97.205        0.051      347.500       26.511      857.548
08/09/2013  16:43:00     -235.518     -187.916       -5.152      167.886      114.304       64.649    28185.679    13065.334     4179.490        6.811        2.272      301.300       62.269        0.043      347.597       26.678      857.569
08/09/2013  16:44:00     -126.765     -110.500       15.850      127.004      100.774       48.653    16130.048    10155.481     2367.137        2.859        1.433      168.165       53.084        0.100      347.810       27.046      857.583
08/09/2013  16:45:00     -249.074      -89.552      -15.810      126.432       77.880       55.061    15985.011     6065.221     3031.689        4.769        1.254      264.684       54.280        0.042      347.635       26.744      857.594
08/09/2013  16:46:00     -215.758      -40.055        5.802      135.011       81.170       57.370    18227.878     6588.627     3291.263        3.814        1.405      219.445       64.097        0.085      347.774       26.984      857.581
08/09/2013  16:47:00     -207.033     -179.815       -7.394      103.053       77.292       65.487    10619.923     5974.028     4288.537        4.806        1.044      274.219       61.348        0.050      347.688       26.834      857.593
08/09/2013  16:48:00     -156.906      -76.579      -14.381      114.668       75.666       40.624    13148.819     5725.283     1650.281        2.560        1.026      174.597       46.585        0.071      347.790       27.011      857.588
08/09/2013  16:49:00     -258.629      -83.673       -3.216      127.122       84.090       50.322    16159.966     7071.104     2532.277        4.983        1.288      271.827       52.395        0.037      347.809       27.045      857.592
08/09/2013  16:50:00     -307.304     -195.385      -19.970      170.895      132.035       68.128    29204.998    17433.206     4641.359        9.214        2.564      364.158       73.976        0.041      347.775       26.985      857.582
08/09/2013  16:51:00     -331.579     -124.282       -8.906      154.884      104.967       62.945    23989.032    11017.993     3962.073        8.221        1.948      354.105       69.582        0.039      347.688       26.834      857.607
08/09/2013  16:52:00     -198.920      -66.711        7.632      162.131      121.476       56.380    26286.613    14756.333     3178.685        4.414        2.211      209.808       74.763        0.127      347.827       27.075      857.618
08/09/2013  16:53:00     -246.225     -178.974       -7.580      132.084      113.927       60.122    17446.282    12979.264     3614.708        6.337        1.702      304.398       69.725        0.052      347.539       26.578      857.609
08/09/2013  16:54:00     -173.551     -101.108      -10.244      147.048       92.171       53.122    21623.100     8495.491     2821.978        3.669        1.647      200.855       70.699        0.124      347.602       26.688      857.604
08/09/2013  16:55:00      -92.321     -128.183       19.933       77.473      105.606       46.165     6002.080    11152.569     2131.178        2.232        0.964      157.969       56.293        0.127      347.765       26.970      857.589
08/09/2013  16:56:00     -134.650      -26.032       13.379      112.149       90.316       46.062    12577.320     8156.982     2121.674        2.092        1.143      137.143       49.278        0.129      347.889       27.182      857.562
08/09/2013  16:57:00     -230.788      -73.591      -11.908      106.139       86.173       37.990    11265.487     7425.740     1443.242        3.947        1.007      242.237       43.723        0.033      347.867       27.145      857.567
08/09/2013  16:58:00     -236.651      -49.933       12.425      158.266      107.509       71.206    25047.974    11558.212     5070.292        5.016        2.084      241.862       73.560        0.093      348.065       27.487      857.589
08/09/2013  16:59:00     -419.974     -106.308      -20.359      215.400      115.647       72.353    46397.033    13374.334     5234.902       12.654        3.250      433.220       88.464        0.042      347.823       27.066      857.559
08/09/2013  17:00:00     -399.623     -191.111       -2.934      235.215      191.729      109.689    55325.889    36759.830    12031.586       15.016        5.206      442.970      113.794        0.066      347.642       26.756      857.570
08/09/2013  17:01:00     -408.152     -244.579       -2.175      196.133      172.323      100.774    38468.179    29695.216    10155.398       15.235        3.916      475.823       97.694        0.042      347.635       26.743      857.565
08/09/2013  17:02:00     -351.703     -187.310      -12.296      183.553      135.646       82.613    33691.619    18399.793     6824.875       10.891        2.946      398.472       92.145        0.053      347.611       26.702      857.588
08/09/2013  17:03:00     -242.695     -146.846        4.343      202.290      148.027       82.004    40921.088    21912.103     6724.668        7.501        3.478      283.663      102.662        0.131      347.667       26.800      857.593
08/09/2013  17:04:00     -272.103     -173.816       -6.338      157.384      127.604       72.379    24769.845    16282.830     5238.659        7.528        2.315      322.881       82.418        0.065      347.677       26.816      857.598
08/09/2013  17:05:00     -292.485     -290.309       -0.191      192.966      161.957       92.298    37235.919    26230.232     8518.959       12.089        3.599      412.100      109.975        0.071      347.670       26.804      857.606
08/09/2013  17:06:00     -239.854     -257.364       11.016      194.475      181.859       94.662    37820.670    33072.779     8960.929       10.186        3.993      351.804      100.843        0.082      347.713       26.878      857.604
08/09/2013  17:07:00     -257.187      -53.432       -9.091      152.542      102.098       63.122    23269.177    10423.950     3984.398        5.337        1.884      262.678       68.106        0.067      347.843       27.103      857.641
08/09/2013  17:08:00     -333.143      -38.669      -10.779      162.535      117.744       77.421    26417.767    13863.679     5994.038        7.943        2.314      335.380       83.819        0.062      347.816       27.056      857.624
08/09/2013  17:09:00     -381.922      -29.223      -16.578      159.829      148.444       73.148    25545.406    22035.685     5350.686        9.995        2.647      383.038       71.117        0.034      347.681       26.823      857.598
08/09/2013  17:10:00     -451.279      -64.521      -23.871      166.017      123.957       73.482    27561.651    15365.238     5399.656       12.835        2.416      455.868       81.653        0.032      347.739       26.924      857.586
08/09/2013  17:11:00     -359.316     -208.215      -14.251      248.650      157.258      100.908    61826.855    24730.148    10182.421       13.469        4.837      415.284      110.628        0.071      347.663       26.793      857.605
08/09/2013  17:12:00     -466.064     -321.881      -19.869      181.221      138.984       77.990    32841.116    19316.649     6082.388       18.972        2.912      566.412       70.962        0.016      347.483       26.482      857.597
08/09/2013  17:13:00     -346.046     -190.371      -20.829      118.854      109.065       57.828    14126.317    11895.265     3344.109        9.289        1.468      394.954       45.112        0.013      347.556       26.607      857.601
08/09/2013  17:14:00     -168.667     -122.137       14.920      170.691      147.070       79.160    29135.325    21629.731     6266.285        5.030        2.852      208.245      102.321        0.241      347.753       26.948      857.607
08/09/2013  17:15:00     -148.883      -86.838       11.902      111.751       76.954       52.133    12488.344     5921.940     2717.861        2.548        1.056      172.357       49.171        0.081      347.906       27.213      857.607
08/09/2013  17:16:00     -283.737      -77.856        5.776      184.767      158.773       84.097    34138.741    25208.901     7072.309        7.650        3.321      294.224       94.750        0.104      347.865       27.140      857.610
08/09/2013  17:17:00     -349.781      -65.122       -3.970      153.442      126.895       76.594    23544.374    16102.403     5866.610        8.605        2.276      355.791       83.714        0.055      347.703       26.861      857.608
08/09/2013  17:18:00     -286.416      -51.555        6.402      175.662      136.592       75.336    30857.175    18657.349     5675.582        6.995        2.760      291.019       83.049        0.081      347.727       26.901      857.630
08/09/2013  17:19:00     -417.585     -189.220      -13.648      190.579      150.915       75.399    36320.465    22775.253     5684.971       13.756        3.239      458.455       79.688        0.030      347.660       26.787      857.637
08/09/2013  17:20:00     -379.115     -223.989      -11.830      153.767      148.204       80.556    23644.419    21964.573     6489.230       12.306        2.605      440.340       79.472        0.033      347.623       26.724      857.630
08/09/2013  17:21:00     -388.735     -196.690      -19.353      160.413       94.613       67.493    25732.229     8951.540     4555.326       11.470        1.962      435.662       67.499        0.024      347.543       26.585      857.634
08/09/2013  17:22:00     -364.485     -282.961       -7.904      247.308      174.706       91.577    61161.464    30522.143     8386.402       15.651        5.004      461.428      104.998        0.052      347.591       26.667      857.639
08/09/2013  17:23:00     -339.032     -213.066        4.648      177.590      133.305       72.292    31538.269    17770.094     5226.099       10.744        2.727      400.425       75.429        0.035      347.554       26.604      857.648
08/09/2013  17:24:00     -340.658     -231.401        7.750      194.200      155.542       91.524    37713.539    24193.398     8376.556       11.996        3.514      411.818      100.981        0.060      347.491       26.496      857.664
08/09/2013  17:25:00     -230.927      -81.494        7.018      122.023      144.396       66.818    14889.692    20850.315     4464.582        5.010        2.010      244.885       64.825        0.070      347.678       26.817      857.682
08/09/2013  17:26:00     -250.100      -81.499       18.734      212.960      179.071       92.539    45351.751    32066.466     8563.510        7.775        4.299      263.044      105.203        0.160      347.682       26.825      857.700
08/09/2013  17:27:00     -299.186     -113.886       -4.571      181.916      112.503       70.945    33093.325    12656.970     5033.169        7.663        2.539      320.129       84.474        0.070      347.561       26.617      857.705
08/09/2013  17:28:00     -317.790      -94.413       -8.679      156.671      133.101       68.032    24545.817    17715.990     4628.398        7.843        2.345      331.518       69.607        0.044      347.662       26.791      857.708
08/09/2013  17:29:00     -305.017     -107.287      -26.097      130.460      128.724       67.133    17019.883    16569.828     4506.833        7.166        1.905      323.336       59.884        0.034      347.712       26.876      857.697
08/09/2013  17:30:00     -392.748     -175.097       -1.083      189.500      188.129      100.544    35910.087    35392.552    10109.043       13.315        4.071      430.012      109.715        0.065      347.574       26.638      857.686
08/09/2013  17:31:00     -509.635     -141.493      -22.124      229.182      162.907       97.390    52524.180    26538.849     9484.734       18.438        4.427      528.912      105.511        0.040      347.470       26.459      857.652
08/09/2013  17:32:00     -513.599     -158.218      -11.113      221.946      176.861       84.030    49260.088    31279.852     7061.074       18.826        4.380      537.417       86.189        0.026      347.368       26.282      857.690
08/09/2013  17:33:00     -470.384     -168.397      -11.305      133.417      137.527       62.893    17800.005    18913.626     3955.502       14.520        2.033      499.619       62.608        0.016      347.396       26.331      857.668
08/09/2013  17:34:00     -242.113      -90.173       20.986      215.715      127.770       78.661    46532.907    16325.176     6187.577        6.811        3.452      258.360       97.682        0.143      347.557       26.609      857.709
08/09/2013  17:35:00     -286.386     -145.458       -4.006      202.223      151.109       81.629    40894.268    22833.973     6663.350        8.678        3.520      321.209       91.314        0.081      347.542       26.583      857.726
08/09/2013  17:36:00     -233.164     -114.621        7.996      175.830      140.329       92.639    30916.192    19692.246     8581.935        6.337        2.960      259.814       92.216        0.126      347.613       26.707      857.741
08/09/2013  17:37:00     -542.465      -43.323      -52.339      227.235      139.470       89.526    51635.701    19451.816     8014.873       18.898        3.955      544.192      111.556        0.042      347.350       26.251      857.741
08/09/2013  17:38:00     -448.118     -150.359      -23.429      178.667      173.995       76.240    31921.763    30274.100     5812.576       14.598        3.400      472.671       73.263        0.024      347.380       26.303      857.720
08/09/2013  17:39:00     -347.434     -203.178       -4.661      204.769      129.808       87.905    41930.274    16850.095     7727.340       11.425        3.325      402.482       90.748        0.051      347.457       26.436      857.737
08/09/2013  17:40:00     -480.064     -328.839      -14.981      226.519      240.179      103.165    51310.689    57685.920    10643.002       22.921        5.982      581.890      127.570        0.048      347.278       26.127      857.732
08/09/2013  17:41:00     -356.780     -299.647       10.445      237.400      199.135      106.508    56358.668    39654.898    11344.040       16.226        5.368      465.919      117.773        0.064      347.294       26.156      857.733
08/09/2013  17:42:00     -446.743     -223.677      -26.765      230.663      201.211      106.031    53205.398    40485.926    11242.634       17.761        5.247      499.611      106.135        0.045      347.351       26.253      857.746
08/09/2013  17:43:00     -432.997     -291.078      -28.357      196.224      149.124       79.544    38503.862    22237.960     6327.316       17.003        3.353      521.740       79.427        0.023      347.237       26.058      857.766
08/09/2013  17:44:00     -427.936     -224.356      -14.381      160.830      159.722       87.271    25866.285    25510.961     7616.188       14.632        2.950      483.182       76.311        0.025      347.262       26.102      857.748
08/09/2013  17:45:00     -362.193     -307.961       -4.313      201.845      173.055      109.209    40741.320    29948.064    11926.518       15.432        4.131      475.420      114.770        0.058      347.232       26.047      857.733
08/09/2013  17:46:00     -342.295     -292.958      -12.101      235.674      148.877      100.303    55542.137    22164.503    10060.759       14.544        4.388      450.544      104.040        0.053      347.194       25.983      857.719
08/09/2013  17:47:00     -347.706     -139.701       -0.897      200.439      125.480       77.219    40175.656    15745.271     5962.803       10.114        3.094      374.721       87.299        0.054      347.291       26.150      857.742
08/09/2013  17:48:00     -400.594     -159.602      -33.548      148.970      145.975       85.493    22191.953    21308.614     7309.117       11.893        2.540      431.217       77.732        0.032      347.299       26.164      857.739
08/09/2013  17:49:00     -239.449     -107.592       -8.671      141.651      118.257       70.184    20064.940    13984.767     4925.757        5.397        1.949      262.510       59.727        0.052      347.313       26.189      857.751
08/09/2013  17:50:00     -485.681      -82.106       -9.749      225.752      192.244       88.459    50963.900    36957.721     7824.967       16.922        4.787      492.572      105.276        0.046      347.213       26.015      857.732
08/09/2013  17:51:00     -467.462     -157.499      -16.104      276.045      195.620      108.650    76200.643    38267.269    11804.792       18.491        6.314      493.282      129.269        0.069      347.201       25.995      857.725
08/09/2013  17:52:00     -469.557     -160.797      -20.177      188.146      158.974       79.999    35398.949    25272.652     6399.809       15.690        3.354      496.326       71.947        0.021      347.098       25.817      857.727
08/09/2013  17:53:00     -396.126     -105.748        1.428      204.148      155.846       74.536    41676.599    24288.015     5555.639       11.980        3.576      409.998       84.443        0.042      347.177       25.952      857.714
08/09/2013  17:54:00     -519.062      -53.395      -30.448      204.601      172.744       98.453    41861.376    29840.650     9693.031       17.729        4.070      521.801      102.084        0.038      347.184       25.966      857.749
08/09/2013  17:55:00     -277.821     -144.739       -0.653      166.665      139.730       81.119    27777.074    19524.407     6580.306        7.600        2.694      313.263       91.637        0.086      347.239       26.061      857.741
08/09/2013  17:56:00     -284.548      -39.646        0.899      165.619       96.811       74.447    27429.727     9372.364     5542.284        6.244        2.117      287.297       72.281        0.063      347.346       26.245      857.746
08/09/2013  17:57:00     -227.845      -82.050        8.929      161.470      173.107       71.458    26072.604    29965.919     5106.296        5.992        3.057      242.169       69.757        0.083      347.341       26.237      857.776
08/09/2013  17:58:00     -222.642     -150.252       15.848      201.252      179.143      110.455    40502.307    32092.173    12200.379        7.858        4.240      268.598      120.782        0.202      347.226       26.037      857.762
08/09/2013  17:59:00     -188.407      -67.145       12.549      133.820      126.294       61.268    17907.726    15950.277     3753.734        3.888        1.881      200.014       60.220        0.091      347.343       26.241      857.809
08/09/2013  18:00:00     -368.182     -246.010       -5.936      186.051      131.543       85.257    34614.845    17303.433     7268.716       12.764        2.959      442.808       95.410        0.046      347.121       25.857      857.780
08/09/2013  18:01:00     -327.722     -214.077      -16.326      186.908      159.342       94.152    34934.568    25389.921     8864.622       11.133        3.459      391.447       84.521        0.047      347.084       25.794      857.752
08/09/2013  18:02:00     -284.606     -112.680        5.771      144.428      124.046       65.681    20859.578    15387.532     4314.050        6.714        2.028      306.100       70.828        0.054      347.175       25.951      857.756
08/09/2013  18:03:00     -279.492     -111.826        0.887      176.447      190.755       94.304    31133.549    36387.349     8893.327        8.351        3.821      301.033       93.581        0.097      347.210       26.012      857.772
08/09/2013  18:04:00     -376.175      -51.000      -18.589      229.905      138.685      101.015    52856.492    19233.489    10204.070       11.336        4.115      379.617      104.171        0.075      347.195       25.986      857.765
08/09/2013  18:05:00     -431.810     -153.949        1.003      212.527      207.524      103.587    45167.564    43066.347    10730.336       15.455        4.948      458.433      109.042        0.057      347.018       25.680      857.820
08/09/2013  18:06:00     -501.505     -270.854      -17.993      215.290      206.678       97.292    46349.715    42715.828     9465.639       21.185        4.927      569.973       99.847        0.031      346.924       25.518      857.787
08/09/2013  18:07:00     -521.341     -288.410       -6.677      277.081      225.075      110.204    76773.680    50658.858    12144.863       24.728        6.979      595.799      139.622        0.055      346.883       25.448      857.777
08/09/2013  18:08:00     -355.484     -297.438       21.266      288.527      243.379      136.704    83247.919    59233.341    18688.047       18.820        8.058      463.506      166.845        0.130      346.870       25.425      857.762
08/09/2013  18:09:00     -288.668     -207.025        6.023      248.693      157.894      100.056    61848.180    24930.463    10011.144       11.149        4.839      355.230      119.102        0.112      346.984       25.620      857.817
08/09/2013  18:10:00     -339.932      -77.271      -14.875      200.117      120.008       75.663    40046.983    14401.919     5724.965        9.095        3.009      348.603       85.002        0.059      347.021       25.684      857.825
08/09/2013  18:11:00     -270.908     -106.103       -6.083      164.342      114.614       65.002    27008.354    13136.390     4225.203        6.452        2.218      290.945       57.550        0.039      347.102       25.825      857.834
08/09/2013  18:12:00     -177.771     -161.232       18.465      154.716      106.074       75.028    23937.138    11251.787     5629.200        4.937        2.041      239.996       83.515        0.121      347.051       25.737      857.831
08/09/2013  18:13:00     -274.844     -171.968       -1.767      247.252      173.201       90.298    61133.504    29998.686     8153.691       10.218        4.964      324.210      126.050        0.151      346.995       25.641      857.813
08/09/2013  18:14:00      -98.473      -83.545       50.024      164.415      155.397       98.472    27032.441    24148.182     9696.731        4.002        3.044      129.138      105.568        0.668      347.080       25.788      857.797
08/09/2013  18:15:00     -296.791      -18.125        1.981      208.667      142.094       82.317    43541.989    20190.710     6776.099        7.945        3.525      297.344       80.798        0.074      347.043       25.724      857.844
08/09/2013  18:16:00     -390.496     -225.541      -25.580      264.585      187.261       98.549    70005.378    35066.676     9711.995       15.938        5.739      450.950       99.718        0.049      346.931       25.531      857.844
08/09/2013  18:17:00     -343.956     -157.723       -5.761      268.368      221.795      107.140    72021.390    49192.913    11479.018       13.793        6.635      378.394      120.528        0.101      346.976       25.608      857.841
08/09/2013  18:18:00     -407.997     -159.418      -23.301      247.829      180.078      103.322    61419.193    32427.983    10675.440       14.845        5.226      438.036      124.752        0.081      346.893       25.464      857.858
08/09/2013  18:19:00     -371.887     -139.414       -4.852      171.833      168.385       81.297    29526.580    28353.500     6609.237       11.111        3.224      397.161       80.211        0.041      346.871       25.426      857.869
08/09/2013  18:20:00     -299.664      -63.278       -1.394      234.011      148.689       87.894    54761.263    22108.494     7725.421        8.919        4.230      306.272      106.493        0.121      346.897       25.471      857.867
08/09/2013  18:21:00     -400.189      -95.538      -14.397      213.432      144.109       86.153    45553.173    20767.440     7422.392       12.160        3.687      411.435      100.973        0.060      346.860       25.409      857.854
08/09/2013  18:22:00     -205.452     -125.916        8.377      167.284      175.651       92.336    27983.924    30853.257     8525.926        6.274        3.368      240.968      100.512        0.174      346.892       25.464      857.869
08/09/2013  18:23:00     -314.797     -159.694       -2.475      236.071      179.367       97.012    55729.577    32172.360     9411.387       11.094        4.866      352.986      116.699        0.109      346.804       25.311      857.824
08/09/2013  18:24:00     -415.910     -276.247       -6.868      218.019      198.648      112.745    47532.491    39461.200    12711.460       17.451        4.985      499.294       98.703        0.039      346.799       25.301      857.836
08/09/2013  18:25:00     -411.205     -223.861      -13.632      243.539      179.223      100.420    59311.457    32120.867    10084.197       16.044        5.076      468.191      110.553        0.056      346.773       25.258      857.886
08/09/2013  18:26:00     -365.644     -232.657      -22.114      148.557      173.309       82.184    22069.179    30035.910     6754.196       12.358        2.943      433.387       76.249        0.031      346.746       25.210      857.903
08/09/2013  18:27:00     -218.149     -205.673       -3.094      168.876      182.055       81.291    28519.058    33144.100     6608.248        7.907        3.414      299.818       89.750        0.090      346.795       25.296      857.898
08/09/2013  18:28:00     -256.889     -176.471        9.625      197.995      165.202      102.914    39202.025    27291.574    10591.201        8.714        3.854      311.663      105.864        0.115      346.781       25.272      857.893
08/09/2013  18:29:00     -371.556     -208.105       -2.585      325.623      215.013      125.573   106030.395    46230.669    15768.689       17.467        8.401      425.866      170.536        0.160      346.684       25.106      857.895
08/09/2013  18:30:00     -413.431     -133.698       -7.790      197.470      227.966      103.414    38994.554    51968.572    10694.445       14.524        5.083      434.511       96.775        0.050      346.718       25.164      857.909
08/09/2013  18:31:00     -442.141      -86.061       -1.052      239.236      189.512       96.058    57233.749    35914.840     9227.085       15.262        5.119      450.439      118.525        0.069      346.684       25.106      857.931
08/09/2013  18:32:00     -261.317      -78.338        5.173      150.609      143.302       79.839    22683.046    20535.605     6374.277        6.201        2.480      272.807       73.511        0.073      346.718       25.163      857.917
08/09/2013  18:33:00     -341.220     -194.894        6.138      260.901      207.944      115.352    68069.579    43240.646    13306.075       13.951        6.231      392.957      133.501        0.115      346.671       25.083      857.900
08/09/2013  18:34:00     -367.581     -227.830       15.331      295.795      194.874      131.683    87494.850    37976.048    17340.367       16.501        7.141      432.460      149.676        0.120      346.605       24.970      857.887
08/09/2013  18:35:00     -293.662      -80.868       17.702      251.075      164.543       99.000    63038.646    27074.336     9801.051        9.649        4.996      304.593      126.604        0.173      346.620       24.997      857.915
08/09/2013  18:36:00     -300.770     -253.941        4.576      240.422      204.224      111.337    57802.700    41707.448    12395.908       13.342        5.595      393.635      119.102        0.092      346.550       24.876      857.912
08/09/2013  18:37:00     -567.075     -321.210        1.435      267.193      200.316      115.602    71391.939    40126.570    13363.861       27.480        6.244      651.728      131.053        0.040      346.451       24.704      857.891
08/09/2013  18:38:00     -344.516     -181.140        8.409      218.243      186.947      105.145    47629.966    34949.208    11055.400       12.259        4.682      389.233      107.037        0.076      346.458       24.717      857.931
08/09/2013  18:39:00     -362.169     -155.542        3.519      249.816      223.547      114.848    62408.006    49973.054    13190.130       14.045        6.279      394.157      132.985        0.114      346.422       24.654      857.932
08/09/2013  18:40:00     -292.742     -105.447       10.621      221.217      135.597       87.665    48937.104    18386.420     7685.190        8.596        3.750      311.155       97.673        0.099      346.413       24.638      857.963
08/09/2013  18:41:00     -322.053      -70.278        0.547      194.370      201.347       78.642    37779.521    40540.669     6184.538        9.657        4.225      329.632       88.970        0.073      346.407       24.629      857.964
08/09/2013  18:42:00     -273.701      -95.614        9.194      227.935      147.061       84.141    51954.463    21626.950     7079.758        8.239        4.033      289.921       99.491        0.118      346.399       24.616      857.981
08/09/2013  18:43:00     -426.741     -151.157      -18.232      256.064      209.629      112.079    65568.589    43944.333    12561.614       16.366        6.104      452.721      122.147        0.073      346.343       24.518      857.983
08/09/2013  18:44:00     -346.866     -168.869      -10.104      235.616      169.465      101.132    55514.952    28718.373    10227.599       12.168        4.723      385.789      109.770        0.081      346.325       24.488      857.972
08/09/2013  18:45:00     -429.272     -229.372      -11.407      258.104      163.013       98.539    66617.747    26573.126     9709.929       16.994        5.145      486.709      121.422        0.062      346.317       24.474      857.988
08/09/2013  18:46:00     -563.263     -148.489      -27.942      220.829      151.995       95.938    48765.656    23102.444     9204.013       21.057        4.054      582.507       86.615        0.022      346.321       24.481      858.000
08/09/2013  18:47:00     -272.309     -128.198        8.386      223.203      164.263       96.124    49819.621    26982.348     9239.833        8.834        4.302      300.976      111.638        0.138      346.394       24.607      858.008
08/09/2013  18:48:00     -387.104     -249.596       -5.940      244.902      187.560      115.849    59977.015    35178.657    13420.972       16.036        5.429      460.595      123.338        0.072      346.369       24.562      858.029
08/09/2013  18:49:00     -391.523     -320.574        5.206      239.812      194.125      122.063    57509.933    37684.580    14899.488       18.307        5.505      506.022      138.046        0.074      346.370       24.567      858.041
08/09/2013  18:50:00     -138.576     -163.603       35.895      189.072      144.716       95.692    35748.325    20942.748     9156.965        5.654        3.292      214.405       88.148        0.169      346.429       24.666      858.081
08/09/2013  18:51:00     -295.549     -217.592        6.147      284.085      184.409      111.766    80704.388    34006.545    12491.624       13.095        6.360      367.009      145.932        0.158      346.395       24.609      858.083
08/09/2013  18:52:00     -540.487     -201.853      -18.239      267.665      207.414      111.515    71644.549    43020.703    12435.529       23.013        6.355      576.950      125.728        0.047      346.377       24.578      858.090
08/09/2013  18:53:00     -285.689     -104.473       -4.924      166.513      130.364       92.433    27726.686    16994.703     8543.824        7.290        2.663      304.192       95.575        0.099      346.445       24.694      858.130
08/09/2013  18:54:00     -440.137     -117.183      -19.370      208.236      224.798       91.188    43362.085    50534.186     8315.275       15.500        5.111      455.469       96.496        0.045      346.378       24.579      858.138
08/09/2013  18:55:00     -391.345     -133.197      -23.152      241.936      226.821       99.601    58533.006    51447.606     9920.404       14.564        5.995      413.391       98.096        0.056      346.374       24.572      858.132
08/09/2013  18:56:00     -411.486     -335.345       -8.131      251.104      224.510      109.368    63053.018    50404.910    11961.412       20.361        6.271      530.826      120.387        0.051      346.328       24.493      858.136
08/09/2013  18:57:00     -251.737     -210.913       10.125      234.128      146.751       99.894    54816.090    21535.835     9978.803        9.713        4.317      328.414      121.304        0.136      346.360       24.549      858.133
08/09/2013  18:58:00     -503.621     -140.040      -37.110      179.175      137.927       83.172    32103.680    19023.932     6917.508       16.632        2.902      522.728       87.326        0.028      346.338       24.511      858.148
08/09/2013  18:59:00     -527.986     -117.960      -29.451      216.941      246.659      108.845    47063.182    60840.874    11847.267       20.663        5.988      541.003      109.919        0.041      346.323       24.484      858.141
08/09/2013  19:00:00     -530.265     -165.482      -24.855      200.462      229.246       84.108    40185.051    52553.838     7074.140       20.448        4.991      555.487       78.518        0.020      346.298       24.442      858.141
08/09/2013  19:01:00     -231.376     -125.549       21.015      200.652      209.281      102.041    40261.154    43798.450    10412.338        8.209        4.724      263.244      123.424        0.220      346.318       24.476      858.165
08/09/2013  19:02:00     -428.780      -62.465      -13.301      279.234      206.183      112.641    77971.665    42511.578    12688.080       16.053        6.659      433.306      145.318        0.112      346.278       24.406      858.166
08/09/2013  19:03:00     -159.962      -51.549       28.431      184.924      160.479       96.910    34196.924    25753.505     9391.554        4.919        3.467      168.063      106.289        0.400      346.357       24.543      858.168
08/09/2013  19:04:00     -279.771      -96.352       -5.702      179.147      120.752       80.048    32093.613    14581.017     6407.755        7.033        2.654      295.897       77.998        0.069      346.316       24.474      858.207
08/09/2013  19:05:00     -194.864      -46.570        3.798      172.098      110.686       62.907    29617.595    12251.367     3957.291        4.298        2.291      200.351       60.584        0.091      346.365       24.558      858.231
08/09/2013  19:06:00     -475.107     -109.388      -11.745      213.412      212.979       95.794    45544.575    45359.863     9176.522       16.894        5.004      487.537      105.635        0.047      346.222       24.311      858.233
08/09/2013  19:07:00     -461.092     -143.269      -18.526      328.214      205.824      109.350   107724.163    42363.324    11957.393       19.773        8.102      482.838      138.781        0.083      346.208       24.286      858.215
08/09/2013  19:08:00     -502.912     -118.274       -4.722      237.562      153.480      107.767    56435.671    23555.958    11613.815       17.925        4.580      516.632      124.985        0.059      346.200       24.273      858.229
08/09/2013  19:09:00     -445.402     -267.217        0.766      239.618      169.207       93.218    57416.689    28630.880     8689.621       18.225        4.737      519.411      103.002        0.039      346.182       24.242      858.272
08/09/2013  19:10:00     -291.336     -141.471       22.810      304.381      158.028      117.715    92647.823    24972.757    13856.762       11.842        6.574      323.868      150.532        0.216      346.216       24.300      858.264
08/09/2013  19:11:00     -405.337     -318.886      -10.247      263.377      186.310      105.130    69367.669    34711.400    11052.321       19.059        5.757      515.739      118.855        0.053      346.150       24.186      858.282
08/09/2013  19:12:00     -315.368     -166.794        9.813      255.941      127.863       93.531    65505.766    16348.933     8747.987       10.897        4.530      356.760      108.278        0.092      346.142       24.173      858.299
08/09/2013  19:13:00     -277.683     -115.636        2.186      173.919      171.020       85.194    30247.662    29247.935     7258.077        7.861        3.338      300.798       78.796        0.069      346.197       24.269      858.334
08/09/2013  19:14:00     -386.407     -135.970      -23.235      215.536      229.100       84.777    46455.705    52486.802     7187.134       13.722        5.306      409.632       91.364        0.050      346.138       24.167      858.330
08/09/2013  19:15:00     -641.589     -327.065      -30.187      216.238      149.178       96.231    46758.743    22254.048     9260.338       29.888        3.914      720.145       82.827        0.013      346.086       24.076      858.339
08/09/2013  19:16:00     -381.351     -203.700      -14.394      299.053      195.512      132.864    89432.459    38224.854    17652.951       16.620        7.266      432.345      141.583        0.107      346.097       24.096      858.314
08/09/2013  19:17:00     -273.905      -22.711      -10.944      194.844      135.974       90.607    37964.290    18489.042     8209.548        7.015        3.233      274.845       85.661        0.097      346.179       24.237      858.360
08/09/2013  19:18:00     -409.561     -277.889        2.355      277.717      246.750      119.414    77126.830    60885.618    14259.676       19.859        7.614      494.937      144.081        0.085      346.069       24.049      858.353
08/09/2013  19:19:00     -544.555     -233.973        0.755      309.301      248.511      137.283    95667.214    61757.938    18846.492       26.375        8.814      592.691      142.739        0.058      346.012       23.950      858.322
08/09/2013  19:20:00     -317.948     -132.633        0.464      214.566      196.108       92.336    46038.782    38458.199     8525.965       10.584        4.651      344.503       80.767        0.055      346.059       24.031      858.386
08/09/2013  19:21:00     -323.935     -241.413        7.002      278.217      245.243       96.288    77404.853    60144.239     9271.365       15.502        7.341      403.997      109.085        0.073      346.060       24.031      858.372
08/09/2013  19:22:00     -408.187     -144.598       -8.767      261.994      217.078      114.093    68640.881    47123.068    13017.227       15.817        6.439      433.041      128.740        0.088      346.028       23.977      858.364
08/09/2013  19:23:00     -495.942     -225.799      -27.286      315.358      174.088      109.815    99450.728    30306.716    12059.336       21.973        7.091      544.926      131.832        0.059      346.005       23.939      858.386
08/09/2013  19:24:00     -538.283     -136.457      -36.569      220.461      215.227      104.245    48602.996    46322.543    10866.969       20.773        5.290      555.310       83.344        0.023      346.003       23.935      858.387
08/09/2013  19:25:00     -496.072     -102.111       -5.873      249.835      264.474      115.470    62417.658    69946.317    13333.347       20.110        7.285      506.472      125.081        0.061      345.977       23.891      858.391
08/09/2013  19:26:00     -330.377     -111.752       -5.300      213.286      136.458       75.738    45490.972    18620.845     5736.218        9.574        3.492      348.765       87.739        0.063      346.029       23.980      858.425
08/09/2013  19:27:00     -342.397      -67.903       -9.143      220.842      130.567       68.247    48771.121    17047.803     4657.683        9.619        3.524      349.065       91.362        0.069      346.031       23.984      858.462
08/09/2013  19:28:00     -362.799     -261.831       -4.706      259.878      231.068      128.777    67536.637    53392.514    16583.480       16.883        6.876      447.413      130.617        0.085      345.975       23.886      858.459
08/09/2013  19:29:00     -436.223     -220.436       -5.528      222.674      170.376      106.835    49583.538    29028.067    11413.711       16.445        4.501      488.756      102.629        0.044      345.919       23.792      858.466
08/09/2013  19:30:00     -506.988     -258.297      -16.037      282.974      258.956      112.763    80074.389    67057.994    12715.478       24.190        7.992      568.994      129.536        0.052      345.871       23.709      858.443
08/09/2013  19:31:00     -302.765     -182.634       17.037      243.145      218.717      122.694    59119.291    47837.270    15053.849       12.364        6.101      353.585      131.740        0.139      345.897       23.753      858.425
08/09/2013  19:32:00     -393.509     -261.927       -2.829      227.418      214.621      129.863    51718.839    46062.162    16864.342       16.903        5.732      472.710      130.583        0.076      345.854       23.679      858.445
08/09/2013  19:33:00     -261.004     -149.045        5.327      250.051      176.127      105.461    62525.349    31020.621    11122.013        9.750        5.233      300.562      119.476        0.158      345.877       23.719      858.466
08/09/2013  19:34:00     -481.821     -311.828       -7.793      250.426      180.057      112.664    62713.248    32420.533    12693.084       21.862        5.391      573.924      112.464        0.038      345.834       23.647      858.470
08/09/2013  19:35:00     -441.384     -295.406      -28.232      232.606      203.651      114.547    54105.748    41473.712    13120.989       19.577        5.435      531.116      120.194        0.051      345.836       23.649      858.477
08/09/2013  19:36:00     -304.756     -205.327       -0.384      228.086      188.448      100.971    52023.429    35512.612    10195.093       11.637        4.887      367.471      125.558        0.117      345.822       23.625      858.524
08/09/2013  19:37:00     -475.622     -215.617      -10.827      280.238      213.284      118.879    78533.188    45490.091    14132.201       20.547        6.908      522.214      128.123        0.060      345.800       23.587      858.551
08/09/2013  19:38:00     -473.696      -89.743      -27.611      340.344      184.980       95.131   115834.210    34217.544     9049.943       19.613        7.955      482.122      133.470        0.077      345.772       23.539      858.538
08/09/2013  19:39:00     -183.071     -160.810        9.622      187.352      130.522       89.100    35100.725    17035.985     7938.751        5.976        3.004      243.669      108.640        0.199      345.824       23.630      858.574
08/09/2013  19:40:00     -371.225     -153.972        2.533      231.151      160.391      110.560    53430.746    25725.394    12223.488       12.644        4.569      401.890      135.298        0.113      345.784       23.559      858.549
08/09/2013  19:41:00     -232.074     -219.960       24.944      203.841      155.419      122.974    41551.302    24155.018    15122.657        9.183        4.041      319.751      124.436        0.151      345.764       23.525      858.559
08/09/2013  19:42:00     -291.732     -233.406      -12.968      182.703      163.938       93.685    33380.256    26875.692     8776.858       10.438        3.452      373.612       95.456        0.065      345.767       23.530      858.597
08/09/2013  19:43:00     -185.529     -105.615       15.675      177.524      155.076       77.269    31514.618    24048.718     5970.470        5.367        3.077      213.484       84.185        0.156      345.759       23.518      858.617
08/09/2013  19:44:00     -406.117     -242.658       -3.256      283.795      155.350      108.355    80539.473    24133.719    11740.731       17.010        5.821      473.090      127.106        0.072      345.705       23.424      858.635
08/09/2013  19:45:00     -531.348     -331.973       -7.750      269.048      217.311      116.791    72386.717    47223.959    13640.027       26.290        6.663      626.527      133.976        0.046      345.672       23.366      858.632
08/09/2013  19:46:00     -370.924     -292.618      -10.380      228.883      172.788      113.989    52387.621    29855.824    12993.437       15.926        4.762      472.451      114.128        0.058      345.664       23.353      858.649
08/09/2013  19:47:00     -286.896     -158.956       -7.676      143.195      142.957       80.221    20504.907    20436.566     6435.459        7.750        2.369      327.988       82.172        0.063      345.683       23.386      858.654
08/09/2013  19:48:00     -479.737     -305.780      -25.816      253.800      182.240      107.766    64414.683    33211.506    11613.583       21.676        5.462      568.902      130.471        0.053      345.659       23.343      858.637
08/09/2013  19:49:00     -481.195     -225.787       -3.272      246.480      211.930      107.463    60752.255    44914.317    11548.381       19.986        5.861      531.534      116.650        0.048      345.629       23.292      858.639
08/09/2013  19:50:00     -307.067     -244.788       12.008      252.122      193.972      109.566    63565.479    37625.272    12004.762       13.376        5.660      392.698      138.051        0.124      345.625       23.287      858.660
08/09/2013  19:51:00     -476.589     -396.436      -14.952      227.552      190.445      116.244    51779.716    36269.151    13512.732       24.302        5.078      619.918      122.295        0.039      345.577       23.203      858.655
08/09/2013  19:52:00     -456.322     -209.898       -3.777      211.713      189.086       87.554    44822.546    35753.365     7665.709       17.026        4.412      502.281      111.616        0.049      345.597       23.236      858.675
08/09/2013  19:53:00     -358.889     -168.953       -1.382      179.190      196.782       94.205    32108.925    38723.242     8874.557       11.851        3.985      396.669      106.447        0.072      345.579       23.206      858.701
08/09/2013  19:54:00     -290.929     -231.324       -9.594      176.474      141.143       74.508    31143.168    19921.306     5551.432        9.742        2.831      371.686       83.272        0.050      345.582       23.212      858.691
08/09/2013  19:55:00     -215.848     -169.381       24.498      228.461      182.100       86.895    52194.290    33160.241     7550.761        8.438        4.645      274.373      108.303        0.156      345.586       23.218      858.704
08/09/2013  19:56:00     -393.441     -206.863       -7.474      268.150      195.933       91.946    71904.450    38389.771     8454.148       15.818        5.937      444.509      114.898        0.067      345.554       23.163      858.719
08/09/2013  19:57:00     -288.010     -245.249        7.415      258.989      222.740      126.246    67075.059    49613.306    15938.168       13.787        6.631      378.281      156.914        0.172      345.542       23.144      858.715
08/09/2013  19:58:00     -294.667     -190.737        0.376      208.083      180.597      108.508    43298.362    32615.436    11774.006       10.543        4.384      351.012      109.877        0.098      345.521       23.107      858.698
08/09/2013  19:59:00     -326.473     -192.641       -9.019      242.329      169.616      105.335    58723.196    28769.420    11095.543       12.117        4.929      379.071      121.185        0.102      345.523       23.111      858.701
08/09/2013  20:00:00     -377.490     -113.636      -20.609      209.463      155.289       87.331    43874.951    24114.727     7626.687       11.571        3.781      394.223       83.698        0.045      345.526       23.116      858.731
08/09/2013  20:01:00     -443.106     -249.291      -16.328      264.638      227.311       86.187    70033.058    51670.370     7428.131       19.392        6.457      508.418      113.868        0.050      345.476       23.029      858.723
08/09/2013  20:02:00     -573.446     -156.740      -32.278      262.899      172.448       83.883    69115.630    29738.252     7036.355       23.015        5.295      594.481      101.903        0.029      345.464       23.007      858.738
08/09/2013  20:03:00     -186.018     -173.941       28.172      202.045      172.961      103.098    40822.287    29915.357    10629.287        7.350        4.068      254.673      105.420        0.171      345.450       22.986      858.758
08/09/2013  20:04:00     -386.453     -178.884       -3.840      278.713      156.484       98.053    77681.130    24487.115     9614.447       14.655        5.589      425.846      119.499        0.079      345.435       22.959      858.772
08/09/2013  20:05:00     -470.881     -128.468      -21.971      277.006      194.369       98.037    76732.421    37779.226     9611.320       18.140        6.206      488.091      110.681        0.051      345.427       22.946      858.808
08/09/2013  20:06:00     -385.009      -87.171        6.722      191.342      181.451      108.991    36611.887    32924.298    11879.086       11.863        4.071      394.754      120.567        0.093      345.420       22.934      858.835
08/09/2013  20:07:00     -326.600     -249.250       -9.922      239.509      217.963      120.271    57364.507    47508.005    14465.045       14.409        5.967      410.844      131.734        0.103      345.410       22.917      858.868
08/09/2013  20:08:00     -360.000     -181.742        3.117      225.486      171.851       88.583    50844.000    29532.742     7846.883       12.542        4.411      403.274      100.063        0.062      345.391       22.884      858.904
08/09/2013  20:09:00     -280.352     -120.583        3.742      219.565      101.532       73.335    48208.962    10308.804     5378.016        7.851        3.195      305.184      100.623        0.109      345.389       22.882      858.917
08/09/2013  20:10:00     -326.252     -157.782       -4.672      183.856      215.835       84.019    33802.864    46584.717     7059.224       10.939        4.372      362.402       81.001        0.050      345.371       22.851      858.915
08/09/2013  20:11:00     -328.137     -258.294      -16.811      189.794      195.999      106.800    36021.658    38415.528    11406.239       13.024        4.292      417.600      121.373        0.084      345.334       22.786      858.930
08/09/2013  20:12:00     -474.161      -24.515      -21.627      247.477      181.133       93.895    61244.730    32808.994     8816.194       16.437        5.143      474.794      102.140        0.046      345.307       22.740      858.919
08/09/2013  20:13:00     -372.806     -166.891        3.044      213.578      198.614       90.201    45615.657    39447.682     8136.192       13.001        4.660      408.457      104.615        0.066      345.302       22.732      858.896
08/09/2013  20:14:00     -336.118     -193.904        6.118      251.839      210.169      109.824    63422.822    44170.843    12061.351       13.511        5.983      388.039      136.836        0.124      345.282       22.697      858.934
08/09/2013  20:15:00     -307.597     -107.559       -0.086      225.891      142.176       88.812    51026.833    20213.920     7887.577        9.264        3.956      325.860      105.844        0.106      345.252       22.646      858.980
08/09/2013  20:16:00     -402.237      -72.531      -18.940      205.462      160.175       76.142    42214.589    25655.999     5797.582       12.053        3.683      408.724       90.516        0.049      345.208       22.572      859.021
08/09/2013  20:17:00     -258.621       -6.985      -10.080      189.829      120.257       80.397    36034.947    14461.641     6463.687        6.199        2.848      258.715       93.761        0.131      345.171       22.507      859.041
08/09/2013  20:18:00     -258.931      -28.188        6.935      197.666      157.481       86.397    39071.801    24800.117     7464.385        6.960        3.567      260.461       84.586        0.105      345.171       22.509      859.047
08/09/2013  20:19:00     -163.836      -31.473        2.876      120.776       88.085       52.004    14586.932     7758.923     2704.400        2.644        1.253      166.831       57.077        0.117      345.183       22.529      859.121
08/09/2013  20:20:00     -294.299       60.925      -12.469      156.253       97.274       65.460    24415.045     9462.320     4285.014        6.431        1.908      300.539       70.379        0.055      345.115       22.413      859.125
08/09/2013  20:21:00     -261.731      -54.169      -10.409      164.299      131.151       76.181    26994.109    17200.526     5803.487        6.076        2.500      267.278       86.679        0.105      345.116       22.415      859.171
08/09/2013  20:22:00     -350.779       11.317      -19.889      204.598      126.003       78.838    41860.331    15876.716     6215.370        9.375        3.198      350.962       99.582        0.081      345.076       22.344      859.179
08/09/2013  20:23:00     -122.028       -2.103        3.653      128.136       94.611       64.182    16418.857     8951.323     4119.347        2.219        1.474      122.046       66.871        0.300      345.026       22.261      859.208
08/09/2013  20:24:00     -364.889       54.791      -15.604      255.781      156.894       87.059    65423.874    24615.778     7579.292       11.699        4.881      368.980      132.066        0.128      345.052       22.305      859.234
08/09/2013  20:25:00     -353.193      -63.292      -13.799      150.356      184.344       84.603    22607.002    33982.857     7157.685        9.633        3.187      358.819       73.401        0.042      345.068       22.332      859.265
08/09/2013  20:26:00     -481.647      -40.112      -25.961      130.974      186.903       70.168    17154.128    34932.912     4923.489       14.563        2.851      483.314       63.133        0.017      345.062       22.322      859.312
08/09/2013  20:27:00     -360.498     -102.167      -31.439      162.603      120.322       69.568    26439.691    14477.379     4839.688        9.356        2.288      374.696       66.143        0.031      345.056       22.312      859.312
08/09/2013  20:28:00     -264.257      -57.565      -30.694       84.404       78.088       44.694     7124.018     6097.769     1997.516        4.465        0.761      270.454       32.218        0.014      345.069       22.334      859.352
08/09/2013  20:29:00     -231.922       10.930      -37.801      135.786      131.387       60.130    18437.864    17262.512     3615.594        4.732        1.966      232.179       54.642        0.055      345.045       22.295      859.339
08/09/2013  20:30:00     -215.810      -37.359      -20.895      118.296      115.052       61.904    13993.934    13236.941     3832.078        3.973        1.553      219.020       60.403        0.076      345.041       22.287      859.371
08/09/2013  20:31:00     -191.067       86.026      -22.588      147.549      104.451       69.798    21770.738    10909.940     4871.816        4.098        1.878      209.540       78.077        0.139      344.988       22.195      859.367
08/09/2013  20:32:00     -183.320       63.845       -9.265      110.304       84.866       59.248    12166.880     7202.156     3510.384        3.032        1.144      194.120       59.625        0.094      345.017       22.245      859.383
08/09/2013  20:33:00     -360.643       -0.166      -36.407      133.918      109.561       58.943    17934.121    12003.664     3474.273        8.239        1.671      360.643       47.593        0.017      344.993       22.202      859.421
08/09/2013  20:34:00     -260.329      -56.725      -21.581       97.671       83.599       57.843     9539.589     6988.788     3345.774        4.566        0.994      266.438       46.971        0.031      344.966       22.157      859.437
08/09/2013  20:35:00     -316.643      -25.247      -32.074      151.965       95.452       59.371    23093.361     9111.038     3524.972        6.882        1.786      317.648       74.127        0.054      344.976       22.175      859.446
08/09/2013  20:36:00      -67.688       46.015       -1.831       77.114       60.532       42.417     5946.639     3664.089     1799.193        0.905        0.570       81.848       40.890        0.250      344.908       22.060      859.482
08/09/2013  20:37:00     -175.928      267.152      -24.707      115.343      134.036       78.799    13303.928    17965.629     6209.283        7.020        1.874      319.877       76.418        0.057      344.869       21.991      859.475
08/09/2013  20:38:00     -259.714      144.620       -5.910      165.050      120.134       81.897    27241.468    14432.283     6707.188        6.838        2.419      297.265       78.064        0.069      344.875       22.001      859.470
08/09/2013  20:39:00     -316.950       64.197      -23.881      148.451      126.149       71.715    22037.735    15913.587     5142.981        7.411        2.155      323.386       73.238        0.051      344.898       22.041      859.496
08/09/2013  20:40:00     -215.614      131.110      -26.240      124.420       68.986       55.477    15480.340     4759.075     3077.654        4.384        1.166      252.348       59.082        0.055      344.884       22.017      859.544
08/09/2013  20:41:00     -168.743      122.125      -25.708       93.650      105.339       52.953     8770.319    11096.334     2803.996        3.336        1.134      208.300       40.327        0.037      344.867       21.988      859.552
08/09/2013  20:42:00     -140.251      -22.767       -4.159      107.985      125.392       69.189    11660.839    15723.127     4787.080        2.618        1.609      142.087       15.763        0.012      344.858       21.973      859.569
08/09/2013  20:43:00     -225.861       18.807       -0.107      144.633      115.097       75.286    20918.633    13247.283     5667.986        4.559        1.992      226.643       80.897        0.127      344.830       21.926      859.591
08/09/2013  20:44:00     -300.406      -12.710      -17.270       90.031      103.201       46.735     8105.592    10650.483     2184.175        5.582        1.047      300.675       36.250        0.015      344.805       21.878      859.642
08/09/2013  20:45:00     -261.605       37.047       -8.523      174.178       92.995       52.913    30337.953     8648.103     2799.814        5.583        2.089      264.215       75.035        0.081      344.727       21.748      859.663
08/09/2013  20:46:00     -278.224     -127.364      -15.334      176.712      140.393       76.466    31226.969    19710.250     5847.042        7.532        2.839      305.991       91.826        0.090      344.766       21.814      859.660
08/09/2013  20:47:00     -297.318       49.537      -23.663      128.906      158.392       70.840    16616.877    25087.975     5018.240        6.906        2.336      301.417       64.447        0.046      344.736       21.761      859.664
08/09/2013  20:48:00     -307.172       30.087      -22.171      194.898       95.601       69.856    37985.357     9139.615     4879.793        7.387        2.600      308.642       91.432        0.088      344.716       21.730      859.669
08/09/2013  20:49:00     -361.104      -44.774      -35.679      144.304      107.686       66.171    20823.676    11596.276     4378.565        8.523        1.840      363.869       66.578        0.033      344.773       21.825      859.643
08/09/2013  20:50:00     -394.111      -46.921      -24.843      120.412      126.471       69.302    14499.159    15994.897     4802.814        9.671        1.765      396.894       63.396        0.026      344.793       21.859      859.636
08/09/2013  20:51:00     -245.457      -59.194      -25.615      106.362       99.366       48.975    11312.978     9873.668     2398.592        4.399        1.179      252.493       51.127        0.041      344.748       21.781      859.680
08/09/2013  20:52:00     -197.963      -74.319        3.582       79.374       82.779       44.208     6300.191     6852.442     1954.348        2.991        0.755      211.453       38.316        0.033      344.721       21.738      859.688
08/09/2013  20:53:00     -229.571      -69.413        7.672      143.371      109.074       59.175    20555.206    11897.045     3501.693        4.676        1.798      239.835       72.689        0.092      344.692       21.688      859.704
08/09/2013  20:54:00     -278.055      -40.250        2.096      137.395      144.343       64.457    18877.273    20834.858     4154.746        6.140        2.193      280.953       56.842        0.041      344.678       21.662      859.675
08/09/2013  20:55:00     -357.868        0.409      -18.729      152.652      102.551       60.048    23302.758    10516.630     3605.758        8.292        1.871      357.868       64.115        0.032      344.639       21.594      859.699
08/09/2013  20:56:00     -287.333     -149.928       -9.587      159.167      144.003       72.159    25334.114    20736.918     5206.981        7.820        2.564      324.096       82.857        0.065      344.619       21.563      859.708
08/09/2013  20:57:00     -448.170      -96.055      -22.662      127.412      128.184       70.285    16233.752    16431.120     4940.037       12.409        1.880      458.348       61.081        0.018      344.615       21.557      859.700
08/09/2013  20:58:00     -542.356      -18.182      -35.358      203.086      154.441       73.841    41243.788    23851.912     5452.441       18.313        3.527      542.661       90.950        0.028      344.608       21.546      859.718
08/09/2013  20:59:00     -345.639      -83.878      -13.276      201.978      144.584       92.986    40795.176    20904.393     8646.316        9.850        3.517      355.671       78.802        0.049      344.596       21.524      859.696
08/09/2013  21:00:00     -540.021     -232.763       -7.067      250.672      189.571      102.039    62836.591    35937.151    10411.864       22.750        5.459      588.049      116.118        0.039      344.565       21.471      859.731
08/09/2013  21:01:00     -393.891     -160.559      -11.125      220.294      233.247       91.509    48529.304    54404.052     8373.808       14.616        5.565      425.358       94.512        0.049      344.545       21.436      859.732
08/09/2013  21:02:00     -378.615     -202.342       -8.542      268.127      180.567      106.522    71891.843    32604.561    11346.935       15.008        5.792      429.292      123.373        0.083      344.538       21.423      859.753
08/09/2013  21:03:00     -222.567     -172.865       13.138      202.122      173.882      110.799    40853.272    30234.971    12276.492        8.146        4.168      281.813      127.967        0.206      344.511       21.377      859.759
08/09/2013  21:04:00     -212.483     -125.675       -6.554      153.880      116.937       69.871    23679.171    13674.288     4881.899        5.160        2.112      246.867       68.786        0.078      344.533       21.417      859.809
08/09/2013  21:05:00     -398.897      -81.109        3.259      173.092      178.889       84.350    29960.904    32001.208     7114.964       11.738        3.454      407.060       88.976        0.048      344.482       21.328      859.799
08/09/2013  21:06:00     -479.462        0.996      -29.708      182.050      159.254       93.273    33142.347    25361.844     8699.894       14.897        3.360      479.463       98.009        0.042      344.468       21.304      859.839
08/09/2013  21:07:00     -337.849      -17.504       -8.248      172.508      124.877       78.098    29759.050    15594.270     6099.267        8.298        2.573      338.302       82.268        0.059      344.452       21.277      859.845
08/09/2013  21:08:00     -480.698      -59.753      -27.106      164.618      154.295       79.865    27099.148    23806.947     6378.457       14.632        2.864      484.397       79.294        0.027      344.442       21.261      859.863
08/09/2013  21:09:00     -365.654      -92.189       -5.220      165.213      168.308       79.341    27295.481    28327.664     6294.951       10.206        3.096      377.097       87.523        0.054      344.428       21.235      859.863
08/09/2013  21:10:00     -395.022     -159.771      -22.457      207.644      147.342       97.547    43115.913    21709.731     9515.417       12.819        3.717      426.110       94.563        0.049      344.423       21.227      859.862
08/09/2013  21:11:00     -416.276      -14.865      -22.406      163.958      113.978       77.614    26882.264    12991.059     6023.911       10.995        2.295      416.541       68.730        0.027      344.396       21.181      859.898
08/09/2013  21:12:00     -271.527     -122.971      -10.109      147.756      123.633       68.423    21831.876    15285.105     4681.773        6.537        2.090      298.075       69.240        0.054      344.399       21.187      859.937
08/09/2013  21:13:00     -483.099      -61.364      -21.350      174.763      178.837       85.695    30542.276    31982.516     7343.556       15.373        3.493      486.980       83.481        0.029      344.379       21.153      859.957
08/09/2013  21:14:00     -414.057      -74.940      -19.673      174.269      154.856       67.648    30369.538    23980.299     4576.256       11.818        2.946      420.784       63.065        0.022      344.368       21.135      859.953
08/09/2013  21:15:00     -392.414      -55.556      -23.022      162.276      132.921       71.877    26333.442    17668.053     5166.281       10.338        2.458      396.328       63.403        0.026      344.344       21.092      859.962
08/09/2013  21:16:00     -379.933      -45.357      -23.293      143.780      124.251       65.808    20672.610    15438.214     4330.698        9.369        2.022      382.631       72.309        0.036      344.308       21.030      859.965
08/09/2013  21:17:00     -334.714      -96.692      -20.037      173.415      100.774       67.026    30072.916    10155.332     4492.509        8.325        2.236      348.400       78.372        0.051      344.297       21.012      860.000
08/09/2013  21:18:00     -377.020        4.435       -7.348      180.573      124.730       69.049    32606.439    15557.488     4767.765        9.757        2.647      377.046       87.427        0.054      344.265       20.960      860.021
08/09/2013  21:19:00     -399.580      -78.549       -2.487      157.266      116.863       67.042    24732.519    13657.062     4494.646       10.436        2.144      407.228       75.502        0.034      344.254       20.940      860.049
08/09/2013  21:20:00     -337.947     -136.268      -15.729      191.487       94.127       67.501    36667.436     8859.872     4556.338        9.155        2.504      364.386       68.906        0.036      344.240       20.915      860.071
08/09/2013  21:21:00     -193.449        3.257       -0.043      133.701       96.538       60.720    17875.883     9319.671     3686.976        3.415        1.544      193.476       61.464        0.101      344.185       20.821      860.119
08/09/2013  21:22:00     -226.343      -39.591       -6.149      133.166      136.712       61.508    17733.131    18690.113     3783.218        4.651        2.010      229.779       54.441        0.056      344.184       20.820      860.123
08/09/2013  21:23:00     -182.219      -24.742       -7.686      102.333       84.763       52.905    10472.082     7184.849     2798.978        2.716        1.023      183.891       47.228        0.066      344.134       20.734      860.120
08/09/2013  21:24:00     -332.021      -83.283      -17.940      140.068      112.282       67.697    19619.181    12607.161     4582.847        7.715        1.840      342.307       54.607        0.025      344.146       20.755      860.144
08/09/2013  21:25:00     -470.621      -82.185       -6.083      244.675      171.449      103.914    59865.993    29394.908    10798.214       16.415        5.003      477.743      113.252        0.056      344.132       20.731      860.127
08/09/2013  21:26:00     -429.045     -105.289      -29.099      154.966      209.543       64.321    24014.406    43908.112     4137.158       13.402        3.603      441.775       60.352        0.019      344.143       20.749      860.151
08/09/2013  21:27:00     -359.711      -49.323      -13.031      231.544      171.725       93.604    53612.728    29489.584     8761.684       11.191        4.593      363.077      104.334        0.083      344.146       20.754      860.146
08/09/2013  21:28:00     -638.986     -127.972      -49.852      310.926      203.731      102.962    96674.850    41506.238    10601.071       28.795        7.439      651.675      132.207        0.041      344.146       20.756      860.135
08/09/2013  21:29:00     -391.497      -73.180      -22.699      190.217      155.673       80.524    36182.494    24234.199     6484.060       11.301        3.345      398.278       94.605        0.056      344.135       20.736      860.157
08/09/2013  21:30:00     -441.374      -58.826      -37.114      183.223      115.541       77.196    33570.787    13349.660     5959.252       12.626        2.644      445.277       75.500        0.029      344.123       20.716      860.186
08/09/2013  21:31:00     -414.300      -86.786      -12.530      126.894      120.028       75.756    16102.001    14406.663     5739.040       10.778        1.812      423.292       72.986        0.030      344.092       20.664      860.210
08/09/2013  21:32:00     -286.111      -37.660      -13.408      126.351      105.326       58.744    15964.633    11093.545     3450.894        5.698        1.525      288.579       64.943        0.051      344.041       20.576      860.224
08/09/2013  21:33:00     -336.902      -39.086      -26.886      148.916      103.748       70.343    22175.901    10763.696     4948.151        7.681        1.894      339.161       83.010        0.060      344.016       20.534      860.217
08/09/2013  21:34:00     -413.726      -49.921      -11.216      160.462      131.021       67.766    25748.079    17166.488     4592.230       11.064        2.375      416.727       74.777        0.032      343.990       20.487      860.211
08/09/2013  21:35:00     -324.271      -84.352      -16.022      119.976      108.581       61.517    14394.199    11789.880     3784.308        7.124        1.498      335.063       59.120        0.031      343.958       20.432      860.219
08/09/2013  21:36:00     -329.803      -18.711        1.404      137.833      116.680       64.437    18997.853    13614.187     4152.096        7.294        1.838      330.333       69.270        0.044      343.899       20.333      860.233
08/09/2013  21:37:00     -275.735     -100.459        8.248      142.027      127.586       84.383    20171.658    16278.119     7120.565        6.487        2.179      293.465       81.792        0.078      343.889       20.316      860.219
08/09/2013  21:38:00     -327.078      -58.557       -6.794      159.841      120.001       75.171    25549.029    14400.224     5650.638        7.802        2.280      332.278       77.463        0.054      343.882       20.303      860.201
08/09/2013  21:39:00     -421.157     -159.172       -0.622      253.577      169.744       93.055    64301.295    28813.064     8659.277       15.222        5.089      450.232      116.952        0.067      343.883       20.306      860.179
08/09/2013  21:40:00     -483.192      -98.320      -26.184      252.678      206.585      102.712    63846.214    42677.288    10549.683       18.043        5.854      493.094      115.793        0.055      343.866       20.277      860.165
08/09/2013  21:41:00     -514.489     -153.069      -17.102      192.042      161.303       90.713    36880.260    26018.522     8228.766       17.976        3.556      536.777       90.725        0.029      343.860       20.266      860.190
08/09/2013  21:42:00     -326.107      -50.667       -6.218      215.538      166.012       97.569    46456.776    27560.123     9519.737        9.623        4.177      330.020      105.679        0.103      343.870       20.283      860.216
08/09/2013  21:43:00     -380.350      -97.611      -21.251      138.490       96.442       62.121    19179.454     9300.968     3859.064        9.349        1.617      392.675       67.896        0.030      343.861       20.269      860.178
08/09/2013  21:44:00     -399.014     -147.833       -5.692      253.047      158.047       90.804    64032.725    24978.763     8245.331       13.916        4.863      425.520      109.466        0.066      343.805       20.171      860.165
08/09/2013  21:45:00     -264.283     -110.225        4.803      190.322      144.322       74.450    36222.388    20828.913     5542.876        7.230        3.130      286.348       90.062        0.099      343.821       20.200      860.187
08/09/2013  21:46:00     -496.913      -61.252      -21.107      187.467      128.245       86.162    35143.717    16446.783     7423.828       15.506        2.951      500.674       91.249        0.033      343.827       20.210      860.208
08/09/2013  21:47:00     -274.503      -33.229      -12.190      173.879      105.854       66.860    30233.834    11205.085     4470.258        6.125        2.295      276.507       79.209        0.082      343.823       20.204      860.224
08/09/2013  21:48:00     -331.731      -77.241       -2.852      180.392      110.701       75.524    32541.404    12254.635     5703.828        8.325        2.525      340.605       91.049        0.071      343.785       20.140      860.237
08/09/2013  21:49:00     -283.544     -101.093      -10.991      168.199      108.762       68.339    28290.942    11829.117     4670.178        6.776        2.240      301.026       83.418        0.077      343.796       20.159      860.235
08/09/2013  21:50:00     -308.011     -185.676       -8.583      178.200      133.093       77.856    31755.247    17713.872     6061.519        9.247        2.777      359.648       70.495        0.038      343.789       20.146      860.263
08/09/2013  21:51:00     -396.803     -142.253      -19.119      163.158      154.047       77.364    26620.416    23730.432     5985.258       11.719        2.817      421.531       77.948        0.034      343.769       20.111      860.255
08/09/2013  21:52:00     -264.830      -72.517       -4.054      138.323      127.080       57.395    19133.176    16149.433     3294.210        5.699        1.929      274.579       55.363        0.041      343.746       20.071      860.276
08/09/2013  21:53:00     -293.046      -80.702       -3.236      166.816      123.243       65.236    27827.588    15188.959     4255.687        6.983        2.364      303.955       76.024        0.063      343.730       20.045      860.289
08/09/2013  21:54:00     -340.673      -92.935      -11.445      262.250      154.714       85.011    68775.268    23936.488     7226.922       11.237        4.997      353.122       96.167        0.074      343.732       20.047      860.302
08/09/2013  21:55:00     -432.180      -42.431      -15.898      166.290      124.121       83.953    27652.484    15405.935     7048.122       11.946        2.505      434.258       80.444        0.034      343.701       19.994      860.310
08/09/2013  21:56:00     -344.030      -69.227       -1.690      185.292      115.701       73.314    34332.951    13386.717     5374.974        8.811        2.655      350.926       72.624        0.043      343.689       19.973      860.323
08/09/2013  21:57:00     -255.582      -51.663        5.174      155.014      113.117       78.862    24029.472    12795.504     6219.201        5.552        2.152      260.751       81.402        0.097      343.716       20.020      860.390
08/09/2013  21:58:00     -361.972      -22.594        4.537      215.225      133.531       91.310    46321.625    17830.518     8337.495       10.201        3.624      362.676       97.852        0.073      343.732       20.047      860.423
08/09/2013  21:59:00     -191.098      -69.747       21.915      138.636      120.246       74.944    19220.034    14459.004     5616.554        4.057        1.965      203.428       78.428        0.149      343.745       20.070      860.460
08/09/2013  22:00:00     -332.938     -227.937      -21.766      154.184      122.640       79.978    23772.834    15040.613     6396.538       10.424        2.260      403.488       57.828        0.021      343.769       20.111      860.458
08/09/2013  22:01:00     -148.392      -61.854        7.087      128.595       84.873       60.943    16536.673     7203.459     3714.069        2.667        1.373      160.767       60.359        0.141      343.755       20.087      860.463
08/09/2013  22:02:00     -264.900     -182.699        8.742      146.900      121.548       69.820    21579.728    14773.888     4874.765        7.242        2.061      321.794       76.133        0.056      343.734       20.050      860.444
08/09/2013  22:03:00     -383.875     -133.349      -15.895      206.612      133.362       85.093    42688.535    17785.510     7240.740       11.654        3.386      406.376      109.090        0.072      343.730       20.042      860.423
08/09/2013  22:04:00     -438.088     -107.642      -35.084      254.753      115.264       92.739    64898.940    13285.687     8600.541       14.575        4.339      451.118      112.258        0.062      343.728       20.040      860.445
08/09/2013  22:05:00     -412.895     -185.077       -6.965      185.682      188.662       78.985    34477.664    35593.427     6238.644       14.053        3.815      452.478       78.588        0.030      343.726       20.036      860.514
08/09/2013  22:06:00     -272.415      -84.561       -9.636      157.334      138.238       64.951    24753.891    19109.643     4218.677        6.476        2.404      285.237       70.304        0.061      343.737       20.055      860.531
08/09/2013  22:07:00     -320.311        7.078      -18.104      111.177      101.784       56.235    12360.261    10359.913     3162.428        6.443        1.294      320.389       51.094        0.025      343.719       20.025      860.535
08/09/2013  22:08:00     -261.812      -89.673        0.983      194.003      146.258       70.344    37637.269    21391.359     4948.215        7.027        3.199      276.743       89.332        0.104      343.647       19.903      860.536
08/09/2013  22:09:00     -316.807      -36.471      -20.250      170.852      127.298       68.980    29190.438    16204.678     4758.301        7.612        2.508      318.899       68.604        0.046      343.639       19.890      860.547
08/09/2013  22:10:00     -416.793      -90.066      -28.868      182.755      141.917       66.720    33399.208    20140.301     4451.622       12.032        2.900      426.414       74.387        0.030      343.672       19.945      860.565
08/09/2013  22:11:00     -328.926     -139.092      -20.702      115.634      130.300       65.343    13371.270    16978.167     4269.741        8.129        1.731      357.126       63.188        0.031      343.659       19.922      860.546
08/09/2013  22:12:00     -341.361      -37.715      -28.420      117.582      113.037       59.535    13825.529    12777.412     3544.417        7.445        1.507      343.438       53.632        0.024      343.626       19.866      860.540
08/09/2013  22:13:00     -452.304       11.401      -29.497      192.828      168.758       80.668    37182.677    28479.269     6507.386       13.886        3.608      452.447       92.820        0.042      343.613       19.844      860.567
08/09/2013  22:14:00     -436.135      -55.271      -28.556      165.975      158.444       74.223    27547.603    25104.500     5509.095       12.611        2.908      439.623       57.468        0.017      343.613       19.844      860.534
08/09/2013  22:15:00     -464.750     -112.674      -22.518      174.097      160.874       77.469    30309.714    25880.530     6001.370       14.568        3.110      478.213       71.314        0.022      343.652       19.909      860.538
08/09/2013  22:16:00     -393.166      -93.956       -6.220      115.310      121.939       66.661    13296.425    14869.094     4443.675        9.802        1.630      404.237       55.519        0.019      343.582       19.792      860.599
08/09/2013  22:17:00     -407.534     -153.854      -21.964      122.790      111.243       64.278    15077.304    12375.066     4131.658       11.091        1.579      435.608       62.790        0.021      343.571       19.773      860.569
08/09/2013  22:18:00     -149.693      -45.577        0.164      124.538       92.760       48.379    15509.800     8604.332     2340.520        2.547        1.323      156.477       47.950        0.094      343.486       19.630      860.560
08/09/2013  22:19:00     -165.281      -35.817      -15.849       76.983       84.327       44.873     5926.367     7111.023     2013.564        2.195        0.753      169.118       14.952        0.008      343.514       19.676      860.566
08/09/2013  22:20:00     -141.576       -4.378      -17.484       74.369       62.194       29.624     5530.755     3868.142      877.555        1.532        0.514      141.644       29.112        0.042      343.503       19.658      860.560
08/09/2013  22:21:00     -207.957       34.466      -25.948      103.096       68.054       40.786    10628.810     4631.366     1663.496        3.101        0.846      210.794       44.301        0.044      343.474       19.608      860.555
08/09/2013  22:22:00     -300.885     -100.068      -20.077      170.131      136.784       51.555    28944.715    18709.993     2657.891        7.562        2.516      317.089       50.174        0.025      343.445       19.558      860.572
08/09/2013  22:23:00     -251.067      -18.061      -15.379      123.220      121.058       51.220    15183.056    14654.995     2623.530        4.802        1.623      251.716       42.244        0.028      343.403       19.487      860.596
08/09/2013  22:24:00     -338.387      -79.423      -27.215      152.155      123.533       65.068    23150.995    15260.493     4233.874        8.209        2.132      347.583       64.741        0.035      343.426       19.524      860.601
08/09/2013  22:25:00     -296.487      -24.024      -23.308      120.024      114.535       58.818    14405.867    13118.160     3459.607        6.000        1.549      297.459       46.847        0.025      343.454       19.571      860.619
08/09/2013  22:26:00     -384.472      -40.602      -16.063      156.507      107.416       74.857    24494.348    11538.277     5603.520        9.567        2.082      386.610       71.872        0.035      343.458       19.581      860.571
08/09/2013  22:27:00     -406.549       -3.704      -34.236       97.150      125.538       59.822     9438.218    15759.823     3578.704        9.762        1.439      406.566       56.873        0.020      343.464       19.590      860.552
08/09/2013  22:28:00     -478.252     -110.030      -40.708      203.226      138.046       94.471    41300.825    19056.662     8924.725       15.587        3.464      490.746       94.837        0.037      343.453       19.572      860.559
08/09/2013  22:29:00     -341.903      -27.515      -17.336      147.839      103.031       74.596    21856.261    10615.323     5564.610        7.799        1.902      343.008       76.285        0.049      343.423       19.518      860.623
08/09/2013  22:30:00     -396.681       42.535      -28.386      140.474      123.963       52.097    19732.847    15366.949     2714.061        9.889        1.891      398.955       55.089        0.019      343.461       19.587      860.602
08/09/2013  22:31:00     -353.723      -79.827      -22.273      109.825      131.892       68.604    12061.444    17395.502     4706.459        8.307        1.708      362.618       69.242        0.036      343.409       19.497      860.616
08/09/2013  22:32:00     -299.622       43.510      -31.661      118.023       97.736       53.661    13929.401     9552.384     2879.526        5.951        1.318      302.765       49.485        0.027      343.389       19.462      860.632
08/09/2013  22:33:00     -326.891      -23.045      -17.699      135.791       98.248       61.441    18439.269     9652.577     3775.042        6.978        1.593      327.702       69.159        0.045      343.399       19.482      860.633
08/09/2013  22:34:00     -285.778      -40.613      -35.584       93.648       98.257       39.838     8770.028     9654.415     1587.089        5.229        1.001      288.649       34.768        0.015      343.374       19.436      860.638
08/09/2013  22:35:00     -254.336      -21.495      -31.889       85.728       68.793       52.516     7349.259     4732.465     2757.909        4.050        0.742      255.243       42.832        0.028      343.328       19.358      860.663
08/09/2013  22:36:00     -243.692     -107.040       -0.483      148.272       89.398       51.965    21984.532     7991.952     2700.326        5.175        1.634      266.164       41.412        0.024      343.282       19.281      860.655
08/09/2013  22:37:00     -269.970     -102.467        7.454      116.591       95.098       58.018    13593.407     9043.619     3366.125        5.472        1.300      288.761       56.306        0.038      343.236       19.201      860.698
08/09/2013  22:38:00     -329.645      -48.749      -18.518      149.709      114.371       75.535    22412.780    13080.631     5705.574        7.629        2.060      333.230       70.693        0.045      343.305       19.319      860.683
08/09/2013  22:39:00     -346.981      -65.065      -28.758      134.357      105.343       64.666    18051.913    11097.139     4181.633        7.939        1.667      353.029       74.664        0.045      343.362       19.418      860.642
08/09/2013  22:40:00     -358.922     -124.956      -27.569      140.881      176.479       69.012    19847.579    31144.893     4762.654       10.047        2.788      380.051       57.872        0.023      343.302       19.314      860.622
08/09/2013  22:41:00     -398.103     -110.559      -13.857      204.955      138.496       70.904    42006.712    19181.148     5027.361       11.855        3.311      413.170       65.910        0.025      343.272       19.263      860.628
08/09/2013  22:42:00     -453.585     -140.801      -20.930      158.138      126.581       72.141    25007.545    16022.799     5204.368       13.611        2.312      474.936       76.831        0.026      343.290       19.293      860.631
08/09/2013  22:43:00     -357.778      -86.978      -19.409      128.157      114.387       62.419    16424.277    13084.455     3896.163        8.467        1.670      368.199       51.659        0.020      343.281       19.277      860.644
08/09/2013  22:44:00     -406.283      -69.989      -15.613      152.906       96.283       54.323    23380.145     9270.467     2950.948       10.290        1.780      412.268       55.569        0.018      343.250       19.225      860.640
08/09/2013  22:45:00     -185.066      -48.196      -13.893       83.867       90.869       40.229     7033.640     8257.167     1618.346        2.683        0.845      191.238       31.682        0.027      343.237       19.205      860.620
08/09/2013  22:46:00     -353.093      -24.851      -37.489      150.628       70.905       51.796    22688.730     5027.482     2682.851        7.854        1.520      353.966       67.010        0.036      343.211       19.160      860.608
08/09/2013  22:47:00     -383.054      -79.098      -12.153      132.054      109.986       64.683    17438.158    12096.872     4183.887        9.342        1.686      391.135       67.228        0.030      343.175       19.096      860.605
08/09/2013  22:48:00     -337.781     -114.712       -8.105      189.425      135.743       73.202    35881.657    18426.039     5358.578        9.348        2.983      356.728       83.332        0.055      343.177       19.102      860.616
08/09/2013  22:49:00     -396.947     -113.986       -7.201      152.767      119.005       64.430    23337.829    14162.148     4151.224       10.612        2.083      412.989       58.643        0.020      343.154       19.063      860.631
08/09/2013  22:50:00     -474.201      -23.371      -42.603      203.517      129.707       66.044    41419.108    16823.788     4361.842       14.491        3.130      474.777       74.255        0.024      343.166       19.082      860.621
08/09/2013  22:51:00     -548.453      -68.530      -28.167      251.197      147.539       93.849    63100.121    21767.651     8807.648       19.997        4.684      552.718      125.589        0.052      343.142       19.042      860.585
08/09/2013  22:52:00     -404.072     -129.058       -3.997      188.826      129.927       82.667    35655.143    16881.060     6833.763       11.965        2.968      424.182       91.825        0.047      343.138       19.033      860.629
08/09/2013  22:53:00     -340.882      -50.637      -11.776      183.767      131.969       78.477    33770.327    17415.713     6158.594        8.811        2.867      344.623       88.172        0.065      343.133       19.026      860.654
08/09/2013  22:54:00     -332.172     -100.639      -17.521      190.869      155.869       78.661    36430.855    24295.118     6187.523        9.383        3.346      347.083       76.615        0.049      343.173       19.095      860.622
08/09/2013  22:55:00     -368.131     -110.470      -15.277      129.347      114.445       61.556    16730.627    13097.627     3789.180        9.078        1.681      384.349       56.142        0.021      343.111       18.988      860.647
08/09/2013  22:56:00     -272.850     -176.605        3.408      225.133      206.118       97.842    50684.931    42484.562     9573.003       10.418        5.137      325.017      124.264        0.146      343.127       19.016      860.688
08/09/2013  22:57:00     -298.879      -76.519      -14.559      146.826      163.735       66.406    21557.956    26809.190     4409.703        7.408        2.639      308.519       59.231        0.037      343.188       19.121      860.720
08/09/2013  22:58:00     -227.201       10.786        3.437      140.228      110.505       63.249    19663.921    12211.381     4000.380        4.381        1.794      227.457       60.536        0.071      343.169       19.088      860.682
08/09/2013  22:59:00     -415.315      -91.184       -9.860      196.845      142.047       81.563    38747.924    20177.258     6652.577       12.323        3.279      425.207       97.799        0.053      343.169       19.087      860.683
08/09/2013  23:00:00     -492.154     -120.135      -22.938      183.521      155.653       84.909    33680.028    24227.763     7209.598       16.113        3.256      506.604       94.375        0.035      343.146       19.047      860.648
08/09/2013  23:01:00     -515.368      -95.024      -11.857      250.712      155.343       94.576    62856.508    24131.303     8944.684       18.534        4.797      524.055      115.084        0.048      343.174       19.095      860.651
08/09/2013  23:02:00     -456.531      -70.406      -26.495      211.912      133.675       83.310    44906.660    17869.052     6940.621       14.189        3.486      461.928      104.972        0.052      343.179       19.103      860.687
08/09/2013  23:03:00     -463.044     -118.033      -37.472      195.148      132.872       98.487    38082.708    17654.931     9699.637       14.758        3.272      477.851      100.402        0.044      343.194       19.131      860.669
08/09/2013  23:04:00     -372.938      -59.784       -3.239      246.605      115.799       85.760    60813.872    13409.362     7354.728       11.211        4.079      377.699      108.086        0.082      343.174       19.095      860.685
08/09/2013  23:05:00     -401.008      -45.634      -24.342      182.096       94.702       82.101    33158.910     8968.457     6740.528       10.617        2.443      403.596       98.027        0.059      343.212       19.161      860.670
08/09/2013  23:06:00     -227.161     -118.286       16.739      168.019      157.638       85.031    28230.453    24849.752     7230.267        6.308        3.016      256.113       87.815        0.118      343.134       19.029      860.621
08/09/2013  23:07:00     -315.540      -55.151       -2.947      204.585      142.748       79.181    41854.918    20376.940     6269.552        8.555        3.425      320.324       97.732        0.093      343.160       19.073      860.640
08/09/2013  23:08:00     -336.183      -78.744       -1.059      158.668      110.007       68.397    25175.478    12101.530     4678.157        8.058        2.098      345.282       76.999        0.050      343.144       19.044      860.627
08/09/2013  23:09:00     -372.659      -19.048      -14.189      165.632      112.132       66.623    27434.104    12573.683     4438.691        9.194        2.222      373.146       73.321        0.039      343.168       19.086      860.646
08/09/2013  23:10:00     -278.080     -102.375      -18.392      200.870      188.123       74.749    40348.863    35390.139     5587.425        8.472        4.066      296.326       89.459        0.091      343.207       19.153      860.615
08/09/2013  23:11:00     -288.696      -75.772        9.675      210.076      141.281       75.023    44131.805    19960.271     5628.469        7.944        3.486      298.474       87.654        0.086      343.159       19.072      860.625
08/09/2013  23:12:00     -513.589      -11.031      -31.537      182.449      139.572       94.001    33287.541    19480.387     8836.159       16.324        3.080      513.707       94.133        0.034      343.263       19.247      860.666
08/09/2013  23:13:00     -284.907      -27.181       -0.075      123.227       96.747       60.483    15184.936     9359.992     3658.174        5.505        1.410      286.201       55.657        0.038      343.283       19.281      860.666
08/09/2013  23:14:00     -284.569       12.095       -2.897      179.324      116.451       75.547    32157.096    13560.748     5707.316        6.627        2.571      284.825       92.099        0.105      343.259       19.244      860.621
08/09/2013  23:15:00     -319.651     -100.613       -4.682      180.788      134.398       73.671    32684.422    18062.838     5427.352        8.424        2.809      335.111       90.298        0.073      343.222       19.177      860.636
08/09/2013  23:16:00     -456.216     -172.283      -38.470      211.954      146.642       72.625    44924.601    21504.005     5274.436       15.549        3.585      487.662       78.659        0.026      343.343       19.384      860.643
08/09/2013  23:17:00     -264.113      -37.685        8.160      177.809      139.081       79.065    31616.087    19343.571     6251.241        6.422        2.861      266.788       84.615        0.101      343.302       19.316      860.623
08/09/2013  23:18:00     -232.543      -66.601        5.968      135.186      134.685       66.856    18275.124    18140.172     4469.725        4.971        2.044      241.892       60.411        0.062      343.315       19.336      860.648
08/09/2013  23:19:00     -270.830     -132.881      -16.654      158.622      151.859       74.086    25160.950    23061.035     5488.752        7.249        2.686      301.672       68.916        0.052      343.343       19.384      860.652
08/09/2013  23:20:00     -461.783     -138.352      -21.567      215.658      118.803       75.570    46508.394    14114.153     5710.888       14.958        3.317      482.064       97.973        0.041      343.394       19.470      860.629
08/09/2013  23:21:00     -393.785     -166.443      -13.522      164.505      161.702       83.160    27062.017    26147.613     6915.593       12.153        3.006      427.516       82.730        0.037      343.334       19.368      860.613
08/09/2013  23:22:00     -349.510     -121.860       -9.540      147.479      135.964       82.120    21750.178    18486.095     6743.639        9.203        2.349      370.144       81.996        0.049      343.317       19.339      860.627
08/09/2013  23:23:00     -306.140      -49.593        1.557      156.903      155.833       86.046    24618.484    24283.829     7403.839        7.624        2.815      310.131       87.170        0.079      343.253       19.230      860.626
08/09/2013  23:24:00     -398.773     -136.640      -16.567      211.835      189.192       84.360    44873.939    35793.460     7116.613       13.286        4.389      421.534      102.029        0.059      343.297       19.305      860.628
08/09/2013  23:25:00     -221.876      -23.984       20.179      154.564      131.981       75.543    23890.138    17419.115     5706.713        4.861        2.351      223.169       72.068        0.104      343.281       19.278      860.642
08/09/2013  23:26:00     -231.425      -94.795       -3.791      142.069      126.125       69.439    20183.642    15907.408     4821.773        5.173        2.046      250.087       73.510        0.086      343.259       19.241      860.664
08/09/2013  23:27:00     -115.680      -88.020        8.213      124.660      116.336       61.728    15540.214    13534.008     3810.287        2.704        1.644      145.360       69.886        0.231      343.240       19.210      860.665
08/09/2013  23:28:00     -211.182      -56.273       -1.117      116.048       82.099       50.254    13467.128     6740.303     2525.442        3.525        1.137      218.551       46.920        0.046      343.205       19.150      860.660
08/09/2013  23:29:00     -388.278     -132.072      -27.604      180.348      154.032       68.332    32525.570    23725.890     4669.204       11.493        3.046      410.125       68.637        0.028      343.235       19.200      860.661
08/09/2013  23:30:00     -221.359      -42.556        7.029      164.012      100.602       60.046    26899.999    10120.722     3605.500        4.574        2.031      225.413       76.805        0.116      343.198       19.138      860.677
08/09/2013  23:31:00     -355.027      -83.573      -13.178      127.603      161.141       63.549    16282.605    25966.324     4038.475        8.974        2.314      364.731       45.313        0.015      343.198       19.137      860.675
08/09/2013  23:32:00     -276.656      -34.544      -23.767      112.478      103.729       59.046    12651.216    10759.808     3486.479        5.259        1.345      278.804       48.288        0.030      343.178       19.102      860.660
08/09/2013  23:33:00     -276.265      -16.102      -10.927      120.136       88.807       58.602    14432.690     7886.637     3434.141        5.122        1.288      276.733       56.468        0.042      343.159       19.071      860.652
08/09/2013  23:34:00     -264.361      -40.606      -13.213      171.700      106.208       63.335    29480.786    11280.072     4011.274        5.823        2.239      267.461       79.294        0.088      343.137       19.034      860.649
08/09/2013  23:35:00     -311.189     -135.766      -17.387      145.724      137.950       75.257    21235.380    19030.149     5663.680        8.074        2.296      339.515       82.054        0.058      343.192       19.127      860.657
08/09/2013  23:36:00     -158.476      -43.499        4.034      122.949      104.995       57.036    15116.511    11023.992     3253.067        2.820        1.470      164.337       53.952        0.108      343.123       19.011      860.658
08/09/2013  23:37:00     -311.879      -64.059      -10.770      144.530      118.209       67.618    20888.850    13973.339     4572.179        7.045        1.972      318.389       78.748        0.061      343.158       19.068      860.640
08/09/2013  23:38:00     -419.166      -60.670      -22.148      147.648      113.779       72.593    21799.835    12945.683     5269.715       10.994        2.001      423.534       81.297        0.037      343.155       19.063      860.639
08/09/2013  23:39:00     -273.831      -72.046        3.636      230.849      120.081       73.477    53291.267    14419.517     5398.826        7.664        3.655      283.151       84.440        0.089      343.159       19.072      860.635
08/09/2013  23:40:00     -240.402      -68.159       -6.215       94.389      117.497       56.802     8909.278    13805.428     3226.485        4.420        1.297      249.877       50.533        0.041      343.131       19.022      860.661
08/09/2013  23:41:00     -300.997       -0.940      -26.663      171.140       94.083       51.490    29288.784     8851.662     2651.214        6.604        2.040      300.998       55.863        0.034      343.160       19.074      860.660
08/09/2013  23:42:00     -293.073       10.826      -13.919      170.383      110.394       68.492    29030.516    12186.936     4691.169        6.605        2.295      293.273       81.886        0.078      343.139       19.038      860.664
08/09/2013  23:43:00     -346.154      -68.190        7.984      151.394      116.381       81.746    22920.214    13544.521     6682.362        8.383        2.157      352.807       78.910        0.050      343.181       19.108      860.678
08/09/2013  23:44:00     -217.054      -70.324       -2.395      120.723      132.035       68.506    14573.974    17433.324     4693.109        4.438        1.835      228.162       65.983        0.084      343.143       19.043      860.694
08/09/2013  23:45:00     -232.714      -97.751        2.523      128.013      116.913       55.480    16387.382    13668.685     3078.022        4.842        1.657      252.410       65.393        0.067      343.163       19.078      860.708
08/09/2013  23:46:00     -273.191      -56.899      -13.058      168.928       98.012       60.190    28536.563     9606.289     3622.850        5.990        2.088      279.053       67.118        0.058      343.139       19.037      860.735
08/09/2013  23:47:00     -214.354      -15.945        0.308      125.552      106.722       60.609    15763.321    11389.630     3673.450        3.851        1.541      214.946       55.454        0.067      343.151       19.057      860.723
08/09/2013  23:48:00     -214.630      -30.841        4.628      104.087       97.295       57.057    10834.029     9466.285     3255.556        3.529        1.178      216.835       50.097        0.053      343.108       18.984      860.743
08/09/2013  23:49:00     -200.718      -89.566        5.959      138.396      137.384       63.496    19153.548    18874.249     4031.707        4.520        2.103      219.795       64.657        0.087      343.130       19.022      860.741
08/09/2013  23:50:00     -233.795     -114.111       -4.454      133.970      137.238       63.426    17947.830    18834.234     4022.796        5.425        2.040      260.157       56.210        0.047      343.148       19.052      860.757
08/09/2013  23:51:00     -241.498      -40.239        2.116      131.942      119.504       50.383    17408.628    14281.229     2538.406        4.708        1.711      244.827       55.072        0.051      343.157       19.068      860.747
08/09/2013  23:52:00     -176.297      -58.107        0.903      122.211      112.937       63.234    14935.461    12754.789     3998.544        3.307        1.584      185.627       51.191        0.076      343.157       19.067      860.769
08/09/2013  23:53:00     -253.461     -154.395        1.429      137.261      114.841       58.431    18840.570    13188.523     3414.204        6.176        1.772      296.783       63.725        0.046      343.201       19.141      860.768
08/09/2013  23:54:00     -254.227      -90.534      -17.316      132.331      120.420       57.968    17511.607    14500.868     3360.331        5.424        1.769      269.866       69.773        0.067      343.207       19.153      860.770
08/09/2013  23:55:00     -155.651      -70.109       15.734      104.393       83.931       55.070    10897.817     7044.431     3032.748        2.518        1.049      170.712       48.806        0.082      343.157       19.067      860.789
08/09/2013  23:56:00     -188.941     -145.170       -4.512      129.309       87.386       61.039    16720.853     7636.382     3725.717        4.243        1.404      238.271       63.593        0.071      343.170       19.090      860.828
08/09/2013  23:57:00     -388.247      -74.450      -33.156      158.624       86.622       61.403    25161.674     7503.394     3770.297        9.690        1.822      395.320       55.711        0.020      343.186       19.116      860.838
08/09/2013  23:58:00     -356.513      -49.132        0.546      258.023      128.812       82.141    66575.659    16592.432     6747.156       10.970        4.496      359.883      124.059        0.119      343.167       19.084      860.829
08/09/2013  23:59:00     -290.589      -69.640      -12.873      229.530      100.226       62.447    52684.026    10045.201     3899.601        7.803        3.331      298.817       71.018        0.056      343.209       19.156      860.830
